Victoria — 000000 — position and weather

sailwx.info

Track history (hours):
 
Tides and Currents Weather Stations Pressure Air Temp Water Temp Dewpoint Dewpoint Depression Visibility Wind Speed Wind Dir Waves Ship Positions

Victoria

Last reported at 2014-Jul-22 14:33 UTC. Time now 2014-Jul-22 15:00 UTC.
Position N 23°04' E 113°29'.

Length 19 m.

Type: Pleasure craft. MMSI: 211150030.

Date/timePositionNaut miles runAvg speedWind from/ knotsBaromVisibWave heightAir tempDewpointWater temp
2014-Jul-22 14:33N 23°04' E 113°29'63819302.0
2014-Jul-22 14:31N 31°58' E 120°03'6782561.9
2014-Jul-22 14:15N 22°14' E 113°35'680969.2
2014-Jul-22 13:33N 31°57' E 120°07'640575602.5
2014-Jul-22 13:33N 23°04' E 113°29'6388769.6
2014-Jul-22 13:29N 32°01' E 119°58'67926846.1
2014-Jul-22 13:27N 22°14' E 113°35'681757.2
2014-Jul-22 12:33N 31°57' E 120°12'641256511.2
2014-Jul-22 12:33N 23°04' E 113°29'6399664.0
2014-Jul-22 12:29N 32°02' E 119°58'553.4
2014-Jul-22 12:24N 31°58' E 120°02'63819128.7
2014-Jul-22 12:22N 23°04' E 113°30'507479.6
2014-Jul-22 12:21N 22°14' E 113°35'683858.2
2014-Jul-22 11:33N 31°57' E 120°16'151692.9
2014-Jul-22 11:33N 32°00' E 119°59'63854691.4
2014-Jul-22 11:32N 23°04' E 113°29'63910092.0
2014-Jul-22 11:28N 31°58' E 120°06'67933495.0
2014-Jul-22 11:27N 22°14' E 113°35'501158.1
2014-Jul-22 11:25N 23°04' E 113°30'9856043.8
2014-Jul-22 11:15N 39°05' E 117°44'444640.4
2014-Jul-22 10:33N 32°00' E 120°21'441397208.7
2014-Jul-22 10:33N 39°04' E 117°50'10331859399.2
2014-Jul-22 10:33N 22°14' E 113°35'4958398.1
2014-Jul-22 10:33N 23°02' E 113°24'642577867.9
2014-Jul-22 10:33N 31°59' E 120°02'63879180.4
2014-Jul-22 10:33N 23°04' E 113°29'6415456.3
2014-Jul-22 10:26N 31°57' E 120°12'64122849.4
2014-Jul-22 10:24N 23°04' E 113°29'643766.3
2014-Jul-22 09:34N 31°57' E 120°16'443227776.2
2014-Jul-22 09:33N 39°04' E 117°51'986443533.2
2014-Jul-22 09:33N 23°04' E 113°29'65226064.1
2014-Jul-22 09:32N 32°01' E 120°25'175688.7
2014-Jul-22 09:32N 31°58' E 120°05'7910525.1
2014-Jul-22 09:31N 31°21' E 121°27'65410708.2
2014-Jul-22 09:27N 23°04' E 113°29'0 1.7
2014-Jul-22 09:11N 23°04' E 113°30'501533.7
2014-Jul-22 09:09N 22°14' E 113°35'10341737.3
2014-Jul-22 08:33N 39°04' E 117°52'441176210.3
2014-Jul-22 08:33N 32°02' E 120°29'1816229.2
2014-Jul-22 08:33N 31°57' E 120°09'7627262.2
2014-Jul-22 08:33N 31°21' E 121°27'69247491.8
2014-Jul-22 08:33N 31°59' E 120°20'648129502.5
2014-Jul-22 08:33N 23°04' E 113°29'153.3
2014-Jul-22 08:32N 23°04' E 113°30'50569.7
2014-Jul-22 08:27N 22°14' E 113°35'501277.0
2014-Jul-22 08:24N 23°04' E 113°29'9861157.7
2014-Jul-22 07:33N 39°04' E 117°49'9861774130.6
2014-Jul-22 07:33N 23°04' E 113°29'6512342417.1
2014-Jul-22 07:33N 32°01' E 120°24'98116.2
2014-Jul-22 07:33N 32°01' E 120°35'65632812.0
2014-Jul-22 07:32N 23°04' E 113°30'654112149.8
2014-Jul-22 07:32N 31°21' E 121°27'6918429.1
2014-Jul-22 07:27N 22°14' E 113°35'501286.2
2014-Jul-22 07:24N 23°04' E 113°29'654768.4
2014-Jul-22 06:33N 32°02' E 120°29'694131433.8
2014-Jul-22 06:33N 22°14' E 113°35'507839.1
2014-Jul-22 06:33N 23°04' E 113°29'161.3
2014-Jul-22 06:32N 23°04' E 113°30'98553753.6
2014-Jul-22 06:31N 39°05' E 117°44'44811615.0
2014-Jul-22 06:29N 32°00' E 120°40'6071445.8
2014-Jul-22 06:03N 23°04' E 115°20'6051210.0
2014-Jul-22 05:33N 32°01' E 120°34'107476.3
2014-Jul-22 05:33N 32°01' E 120°46'446321332.4
2014-Jul-22 05:33N 39°03' E 117°49'1032218635.9
2014-Jul-22 05:33N 22°14' E 113°35'5013869.1
2014-Jul-22 05:33N 23°04' E 113°29'4139.8
2014-Jul-22 05:31N 23°04' E 113°25'431.3
2014-Jul-22 05:23N 23°04' E 113°30'1 0.8
2014-Jul-22 04:33N 23°04' E 113°29'9863548895.8
2014-Jul-22 04:33N 39°04' E 117°52'1033132869.1
2014-Jul-22 04:33N 22°14' E 113°35'69762714.3
2014-Jul-22 04:32N 32°00' E 120°39'11140.9
2014-Jul-22 04:28N 31°58' E 120°51'662596126.4
2014-Jul-22 04:28N 23°04' E 113°30'0 8.5
2014-Jul-22 04:24N 23°04' E 113°29'6382990.6
2014-Jul-22 04:12N 31°58' E 120°03'440690.8
2014-Jul-22 03:33N 39°04' E 117°48'1033123965.8
2014-Jul-22 03:33N 22°14' E 113°35'5018032.0
2014-Jul-22 03:33N 23°04' E 113°29'6395961.2
2014-Jul-22 03:26N 31°58' E 120°06'34254.1
2014-Jul-22 03:18N 32°01' E 120°46'6628135.0
2014-Jul-22 03:13N 23°04' E 113°30'028.0
2014-Jul-22 03:12N 23°04' E 113°29'63819462.9
2014-Jul-22 03:10N 31°58' E 120°03'6411031.4
2014-Jul-22 02:33N 23°03' E 113°25'643579074.9
2014-Jul-22 02:33N 31°57' E 120°10'6401152834.1
2014-Jul-22 02:33N 23°04' E 113°29'5016394.7
2014-Jul-22 02:33N 22°14' E 113°35'51793.0
2014-Jul-22 02:29N 23°03' E 113°18'10245.4
2014-Jul-22 02:27N 23°04' E 113°29'0 0.1
2014-Jul-22 01:33N 23°04' E 113°29'642177825.1
2014-Jul-22 01:33N 31°57' E 120°14'643289227.8
2014-Jul-22 01:33N 23°05' E 113°27'5115312.3
2014-Jul-22 01:33N 22°14' E 113°35'69111200.9
2014-Jul-22 01:29N 31°21' E 121°27'6542239.4
2014-Jul-22 01:12N 23°04' E 113°29'6451009.1
2014-Jul-22 00:33N 31°58' E 120°18'645211150.1
2014-Jul-22 00:33N 23°04' E 113°28'1 7.7
2014-Jul-22 00:27N 23°04' E 113°29'1 3.3
2014-Jul-22 00:16N 23°04' E 113°30'50396.5
2014-Jul-22 00:09N 22°14' E 113°35'4983.6
2014-Jul-21 23:33N 23°02' E 113°22'49217.1
2014-Jul-21 23:20N 22°14' E 113°35'50586.6
2014-Jul-21 23:15N 23°04' E 113°29'6567067.2
2014-Jul-21 23:09N 31°47' E 120°55'2948.1
2014-Jul-21 22:33N 31°58' E 120°25'292634.0
2014-Jul-21 22:33N 31°47' E 120°55'69219455.7
2014-Jul-21 22:31N 22°16' E 113°37'49729.7
2014-Jul-21 22:27N 23°04' E 113°29'1 0.6
2014-Jul-21 21:32N 23°04' E 113°30'65529869.3
2014-Jul-21 21:31N 31°47' E 120°55'6569634.0
2014-Jul-21 21:27N 23°04' E 113°29'656670.5
2014-Jul-21 20:28N 31°47' E 120°55'6763997.4
2014-Jul-21 20:18N 22°24' E 113°54'676173888.2
2014-Jul-21 20:18N 31°47' E 120°55'6562622.7
2014-Jul-21 20:03N 23°04' E 113°29'6561326.1
2014-Jul-21 19:33N 31°47' E 120°55'6566211.6
2014-Jul-21 19:27N 23°04' E 113°29'38341.6
2014-Jul-21 19:20N 22°30' E 113°48'675816.9
2014-Jul-21 18:30N 31°47' E 120°55'65610632.5
2014-Jul-21 18:27N 23°04' E 113°29'6595776.1
2014-Jul-21 18:20N 31°25' E 121°31'4 5.3
2014-Jul-21 17:32N 31°21' E 121°32'408503.7
2014-Jul-21 17:32N 31°47' E 120°55'6568056.1
2014-Jul-21 17:27N 23°04' E 113°29'4633231.8
2014-Jul-21 17:27N 22°24' E 113°54'33126.0
2014-Jul-21 17:11N 22°51' E 113°34'6641054.7
2014-Jul-21 16:33N 31°47' E 120°55'656147517.6
2014-Jul-21 16:33N 23°04' E 113°30'13200.7
2014-Jul-21 16:29N 22°51' E 113°34'6584969.6
2014-Jul-21 16:21N 31°15' E 121°30'6516183.9
2014-Jul-21 16:15N 23°04' E 113°29'647849.1
2014-Jul-21 15:29N 31°11' E 121°28'45898.7
2014-Jul-21 15:26N 31°47' E 120°55'65617229.6
2014-Jul-21 15:24N 23°04' E 113°29'141092.1
2014-Jul-21 15:23N 22°51' E 113°34'1213.8
2014-Jul-21 14:30N 23°03' E 113°30'12327.5
2014-Jul-21 14:28N 22°51' E 113°34'66429505.0
2014-Jul-21 14:27N 31°47' E 120°55'6562817.1
2014-Jul-21 14:13N 23°04' E 113°29'913.6
2014-Jul-21 13:32N 22°55' E 113°30'66270135.4
2014-Jul-21 13:32N 31°47' E 120°55'6563940.9
2014-Jul-21 13:22N 23°04' E 113°29'14411.5
2014-Jul-21 13:20N 22°51' E 113°34'911.7
2014-Jul-21 12:32N 22°54' E 113°24'66648949.6
2014-Jul-21 12:32N 31°47' E 120°55'6561810.2
2014-Jul-21 12:10N 23°04' E 113°29'9118.8
2014-Jul-21 12:05N 23°03' E 113°19'4 7.5
2014-Jul-21 11:32N 23°02' E 113°23'6619706.9
2014-Jul-21 11:28N 31°47' E 120°55'6566163.1
2014-Jul-21 11:22N 23°04' E 113°29'648804.1
2014-Jul-21 10:34N 31°58' E 120°23'445534368.7
2014-Jul-21 10:33N 39°05' E 117°46'98653800.2
2014-Jul-21 10:32N 23°03' E 113°30'361600.5
2014-Jul-21 10:31N 22°29' E 113°44'67716349.1
2014-Jul-21 10:29N 31°47' E 120°55'40693.7
2014-Jul-21 10:25N 31°55' E 120°10'63912044.6
2014-Jul-21 10:22N 23°04' E 113°29'4555.1
2014-Jul-21 09:33N 22°22' E 113°44'68348205.8
2014-Jul-21 09:32N 31°47' E 120°55'4020542.0
2014-Jul-21 09:32N 31°55' E 120°09'64919961.6
2014-Jul-21 09:30N 22°55' E 113°26'755.0
2014-Jul-21 09:22N 22°54' E 113°34'64829893.7
2014-Jul-21 09:21N 31°56' E 120°14'6423468.3
2014-Jul-21 09:10N 23°04' E 113°29'6391038.6
2014-Jul-21 08:33N 31°55' E 120°10'6768246.2
2014-Jul-21 08:28N 22°15' E 113°41'39737.9
2014-Jul-21 08:25N 22°52' E 113°32'6642398.5
2014-Jul-21 08:08N 31°47' E 120°55'6971196.5
2014-Jul-21 07:33N 22°10' E 113°36'56897.3
2014-Jul-21 07:30N 23°05' E 113°27'10921162.7
2014-Jul-21 06:33N 35°07' E 129°03'1131239536.4
2014-Jul-21 06:33N 22°09' E 113°28'541608.3
2014-Jul-21 06:31N 23°02' E 113°22'3 3.0
2014-Jul-21 05:33N 23°03' E 113°25'65943143.8
2014-Jul-21 05:32N 31°60' E 120°37'676687.5
2014-Jul-21 04:33N 22°27' E 113°53'4523238.3
2014-Jul-21 04:33N 23°05' E 113°26'65547172.6
2014-Jul-21 04:33N 32°01' E 120°31'44522876.8
2014-Jul-21 04:31N 39°05' E 117°44'4651197.7
2014-Jul-21 04:08N 31°47' E 120°55'3051.7
2014-Jul-21 03:33N 32°00' E 120°24'651334876.3
2014-Jul-21 03:33N 23°05' E 113°26'98530048.7
2014-Jul-21 03:31N 39°05' E 117°44'102220910.7
2014-Jul-21 03:28N 22°22' E 113°55'5054.1
2014-Jul-21 02:33N 23°02' E 113°23'43059.2
2014-Jul-21 02:33N 23°05' E 113°26'64643849.9
2014-Jul-21 02:32N 31°57' E 120°18'4431593424.5
2014-Jul-21 02:32N 39°03' E 117°51'985995.8
2014-Jul-21 01:33N 23°04' E 113°29'985394004.7
2014-Jul-21 01:33N 39°04' E 117°48'98530556.4
2014-Jul-21 01:31N 23°05' E 113°26'58612.2
2014-Jul-21 01:25N 22°20' E 114°05'49678.4
2014-Jul-21 01:21N 22°55' E 113°28'6723168.0
2014-Jul-21 01:08N 30°45' E 122°25'6661148.9
2014-Jul-21 00:33N 23°05' E 113°26'35411.9
2014-Jul-21 00:33N 23°04' E 113°29'149784.7
2014-Jul-21 00:33N 22°51' E 113°34'1615.6
2014-Jul-20 23:33N 23°05' E 113°26'35415.7
2014-Jul-20 23:33N 23°04' E 113°29'504317.2
2014-Jul-20 23:32N 22°14' E 113°36'5252.8
2014-Jul-20 22:33N 23°05' E 113°26'4638.7
2014-Jul-20 22:33N 23°04' E 113°30'10901093.5
2014-Jul-20 21:33N 35°07' E 129°03'1092392963.2
2014-Jul-20 21:33N 23°05' E 113°26'4326.9
2014-Jul-20 21:32N 23°04' E 113°30'6563538.1
2014-Jul-20 21:21N 31°46' E 120°56'656817.4
2014-Jul-20 20:33N 23°05' E 113°26'46541.9
2014-Jul-20 20:33N 23°04' E 113°30'65620170.5
2014-Jul-20 20:31N 31°46' E 120°56'656678.5
2014-Jul-20 19:33N 23°05' E 113°26'4688.2
2014-Jul-20 19:33N 23°04' E 113°30'6563586.5
2014-Jul-20 19:22N 31°46' E 120°56'656814.6
2014-Jul-20 18:33N 23°05' E 113°26'413083.8
2014-Jul-20 18:33N 23°04' E 113°30'6563352.2
2014-Jul-20 18:22N 31°46' E 120°56'33119962.6
2014-Jul-20 18:22N 31°59' E 120°20'648805.5
2014-Jul-20 17:33N 23°05' E 113°26'65131670.2
2014-Jul-20 17:32N 32°01' E 120°23'31306.1
2014-Jul-20 17:26N 31°46' E 120°56'656748.5
2014-Jul-20 16:33N 23°05' E 113°26'31046.5
2014-Jul-20 16:33N 23°04' E 113°29'6541176817.9
2014-Jul-20 16:33N 32°02' E 120°28'654657.5
2014-Jul-20 15:34N 23°04' E 113°29'3405.9
2014-Jul-20 15:33N 23°05' E 113°26'65698472.0
2014-Jul-20 15:33N 32°01' E 120°33'24100.7
2014-Jul-20 15:18N 31°46' E 120°56'471125.6
2014-Jul-20 15:16N 31°58' E 120°03'4 6.1
2014-Jul-20 14:33N 31°57' E 120°08'640575712.6
2014-Jul-20 14:33N 23°04' E 113°29'3412.7
2014-Jul-20 14:33N 23°05' E 113°26'65869719.3
2014-Jul-20 14:32N 32°00' E 120°39'20617.8
2014-Jul-20 14:30N 31°46' E 120°56'3638.2
2014-Jul-20 13:33N 31°57' E 120°15'643144773.7
2014-Jul-20 13:33N 23°05' E 113°26'3152.6
2014-Jul-20 13:32N 23°04' E 113°29'6567024.5
2014-Jul-20 13:26N 31°46' E 120°56'3236.1
2014-Jul-20 12:33N 31°60' E 120°21'649155763.1
2014-Jul-20 12:33N 23°05' E 113°26'3383.4
2014-Jul-20 12:32N 23°04' E 113°29'65622693.0
2014-Jul-20 12:31N 31°46' E 120°56'656689.3
2014-Jul-20 11:33N 23°05' E 113°26'6542353315.2
2014-Jul-20 11:33N 32°02' E 120°27'653391863.1
2014-Jul-20 11:33N 23°04' E 113°29'6561361.2
2014-Jul-20 11:04N 31°46' E 120°56'6561271.8
2014-Jul-20 10:33N 23°05' E 113°26'31213.1
2014-Jul-20 10:33N 23°04' E 113°29'656472274.8
2014-Jul-20 10:33N 32°01' E 120°34'66424913.9
2014-Jul-20 10:32N 22°53' E 113°31'6644847.2
2014-Jul-20 10:23N 31°46' E 120°56'656780.0
2014-Jul-20 09:33N 23°04' E 113°29'3210.3
2014-Jul-20 09:32N 23°05' E 113°26'9856740.4
2014-Jul-20 09:23N 39°05' E 117°44'4662063.1
2014-Jul-20 09:10N 31°46' E 120°56'463766.0
2014-Jul-20 08:33N 39°04' E 117°51'9853547619.5
2014-Jul-20 08:33N 23°05' E 113°26'31092.6
2014-Jul-20 08:33N 23°04' E 113°29'6561518.1
2014-Jul-20 08:07N 31°46' E 120°56'464820.5
2014-Jul-20 07:33N 39°04' E 117°49'9841181310.4
2014-Jul-20 07:33N 23°05' E 113°27'3197.1
2014-Jul-20 07:33N 23°04' E 113°29'985999.2
2014-Jul-20 06:33N 39°05' E 117°44'9851772378.1
2014-Jul-20 06:33N 23°05' E 113°27'3331.2
2014-Jul-20 06:33N 23°04' E 113°29'58336.4
2014-Jul-20 06:23N 22°12' E 113°55'10321259.3
2014-Jul-20 05:33N 39°04' E 117°47'9841771974.0
2014-Jul-20 05:33N 23°05' E 113°27'31186.1
2014-Jul-20 05:33N 23°04' E 113°29'555042.8
2014-Jul-20 05:33N 22°13' E 113°49'69420992.6
2014-Jul-20 05:31N 32°01' E 120°43'446467.7
2014-Jul-20 04:33N 39°04' E 117°51'9851182223.3
2014-Jul-20 04:33N 23°05' E 113°27'663398016.2
2014-Jul-20 04:33N 32°00' E 120°49'6631193530.6
2014-Jul-20 04:33N 23°04' E 113°29'66060965.1
2014-Jul-20 04:33N 30°42' E 122°23'993858.1
2014-Jul-20 04:31N 31°46' E 120°56'465484.1
2014-Jul-20 03:33N 39°05' E 117°46'9851181546.7
2014-Jul-20 03:33N 23°05' E 113°27'31184.8
2014-Jul-20 03:33N 23°04' E 113°29'3 2.6
2014-Jul-20 02:33N 23°05' E 113°27'3315.9
2014-Jul-20 02:33N 23°04' E 113°29'541087.6
2014-Jul-20 02:30N 22°11' E 113°26'41336.7
2014-Jul-20 02:23N 22°51' E 113°34'7106.2
2014-Jul-20 02:19N 22°55' E 113°27'1238.9
2014-Jul-20 02:18N 22°55' E 113°26'9961330.1
2014-Jul-20 01:33N 39°04' E 117°51'9861774927.5
2014-Jul-20 01:33N 23°04' E 113°29'3236.4
2014-Jul-20 01:33N 23°05' E 113°26'16132.0
2014-Jul-20 01:26N 22°51' E 113°34'350.3
2014-Jul-20 01:23N 22°53' E 113°31'355.0
2014-Jul-20 01:20N 22°51' E 113°34'177758.7
2014-Jul-20 01:06N 23°07' E 116°46'181336.7
2014-Jul-20 00:33N 23°04' E 113°29'39478.3
2014-Jul-20 00:33N 23°05' E 113°27'162020.9
2014-Jul-20 00:33N 22°51' E 113°34'421154.1
2014-Jul-20 00:31N 22°10' E 113°27'1971006.6
2014-Jul-20 00:19N 23°11' E 116°51'188247.1
2014-Jul-19 23:33N 23°05' E 113°26'310336.1
2014-Jul-19 23:33N 23°04' E 113°29'189113566.7
2014-Jul-19 23:33N 23°14' E 116°55'198102007.4
2014-Jul-19 23:33N 22°10' E 113°31'451718.5
2014-Jul-19 23:32N 22°55' E 113°26'1111.2
2014-Jul-19 22:33N 23°05' E 113°26'5614295.7
2014-Jul-19 22:33N 22°10' E 113°31'5432419.7
2014-Jul-19 22:33N 23°04' E 113°29'6561442.2
2014-Jul-19 22:06N 31°46' E 120°56'6561215.1
2014-Jul-19 21:33N 23°04' E 113°29'0641.8
2014-Jul-19 21:33N 23°04' E 113°29'5414963.5
2014-Jul-19 21:33N 22°10' E 113°31'5454.3
2014-Jul-19 20:33N 23°04' E 113°29'5412159.2
2014-Jul-19 20:33N 22°10' E 113°31'5454.0
2014-Jul-19 19:33N 23°04' E 113°29'54546.4
2014-Jul-19 19:27N 22°10' E 113°31'5460.3
2014-Jul-19 18:33N 23°04' E 113°29'5411440.1
2014-Jul-19 18:33N 22°10' E 113°31'6 5.6
2014-Jul-19 17:33N 22°10' E 113°37'543626.0
2014-Jul-19 17:32N 23°04' E 113°29'0 0.0
2014-Jul-19 16:33N 23°04' E 113°29'5231419.7
2014-Jul-19 16:33N 22°14' E 113°44'2271364.8
2014-Jul-19 16:23N 23°38' E 117°34'221265.0
2014-Jul-19 15:33N 22°18' E 113°50'5016383.2
2014-Jul-19 15:33N 23°04' E 113°29'23217776.2
2014-Jul-19 15:32N 23°41' E 117°39'5311587.5
2014-Jul-19 15:12N 19°46' E 109°07'537826.3
2014-Jul-19 14:33N 23°46' E 117°45'2373717.1
2014-Jul-19 14:29N 22°59' E 113°31'243260.1
2014-Jul-19 13:33N 23°51' E 117°50'24413728.0
2014-Jul-19 13:32N 22°52' E 113°32'419.4
2014-Jul-19 13:21N 22°54' E 113°29'3 3.4
2014-Jul-19 12:32N 22°55' E 113°26'2555223.5
2014-Jul-19 12:29N 23°57' E 117°56'50113154.3
2014-Jul-19 12:27N 32°00' E 120°24'691165765.3
2014-Jul-19 12:27N 22°13' E 113°35'288787.3
2014-Jul-19 12:05N 19°44' E 109°11'288538.2
2014-Jul-19 11:33N 22°13' E 113°35'28819188.0
2014-Jul-19 11:32N 19°44' E 109°11'9588733.4
2014-Jul-19 11:25N 32°02' E 120°30'664766.6
2014-Jul-19 10:33N 22°51' E 113°34'66629955.4
2014-Jul-19 10:32N 32°01' E 120°36'66514086.2
2014-Jul-19 10:29N 22°54' E 113°30'99614689.2
2014-Jul-19 10:25N 39°05' E 117°44'103414159.3
2014-Jul-19 10:21N 22°13' E 113°35'68330734.9
2014-Jul-19 10:19N 31°10' E 121°28'509664.1
2014-Jul-19 09:33N 39°05' E 117°46'89249409.3
2014-Jul-19 09:32N 24°13' E 118°12'45517810.5
2014-Jul-19 09:31N 31°13' E 121°30'312.3
2014-Jul-19 09:15N 31°10' E 121°28'508729.8
2014-Jul-19 08:33N 39°05' E 117°45'50616267.5
2014-Jul-19 08:31N 31°13' E 121°30'3266.1
2014-Jul-19 08:31N 31°15' E 121°32'4501642.3
2014-Jul-19 08:14N 24°18' E 118°20'8861300.2
2014-Jul-19 07:33N 39°04' E 117°47'5031812401.6
2014-Jul-19 07:33N 31°16' E 121°33'69095600.8
2014-Jul-19 07:33N 22°13' E 113°35'29625949.3
2014-Jul-19 07:32N 24°21' E 118°25'45017815.9
2014-Jul-19 07:31N 31°19' E 121°33'445465.0
2014-Jul-19 06:33N 24°25' E 118°31'44569704.3
2014-Jul-19 06:33N 31°22' E 121°28'2596.5
2014-Jul-19 06:33N 31°22' E 121°30'332.6
2014-Jul-19 06:26N 31°20' E 121°33'514.9
2014-Jul-19 06:05N 31°25' E 121°32'1 2.5
2014-Jul-19 05:33N 31°24' E 121°31'496595674.5
2014-Jul-19 05:33N 39°05' E 117°45'986208845.2
2014-Jul-19 05:33N 23°03' E 113°30'65828539.6
2014-Jul-19 05:31N 31°24' E 121°31'238.1
2014-Jul-19 05:28N 31°22' E 121°30'6997172.2
2014-Jul-19 05:23N 22°09' E 113°30'10391270.8
2014-Jul-19 04:34N 39°05' E 117°45'49144201.2
2014-Jul-19 04:33N 31°28' E 121°26'6848.3
2014-Jul-19 04:32N 31°24' E 121°32'541.5
2014-Jul-19 04:25N 31°27' E 121°27'676788.1
2014-Jul-19 03:33N 22°26' E 113°53'101950246.9
2014-Jul-19 03:32N 39°05' E 117°45'4907979.6
2014-Jul-19 03:28N 31°29' E 121°25'650.1
2014-Jul-19 03:22N 31°32' E 121°20'662821.6
2014-Jul-19 02:33N 23°03' E 113°25'662595746.5
2014-Jul-19 02:33N 31°33' E 121°20'48275454.2
2014-Jul-19 02:33N 39°04' E 117°51'4934985.2
2014-Jul-19 02:27N 31°25' E 121°32'3830.9
2014-Jul-19 01:14N 31°46' E 120°56'42453.3
2014-Jul-19 01:09N 31°19' E 121°34'4 5.9
2014-Jul-19 00:27N 31°15' E 121°32'87822.4
2014-Jul-19 00:20N 31°57' E 120°03'637729.7
2014-Jul-18 23:28N 23°04' E 113°30'1111.8
2014-Jul-18 22:33N 22°53' E 113°30'11 9.8
2014-Jul-18 21:28N 23°04' E 113°30'65513331.3
2014-Jul-18 21:25N 31°46' E 120°56'655569.4
2014-Jul-18 20:16N 23°04' E 113°30'6615327.1
2014-Jul-18 20:08N 31°57' E 120°52'1 1.9
2014-Jul-18 19:30N 31°58' E 120°51'6701988.5
2014-Jul-18 19:10N 22°53' E 113°31'6711099.2
2014-Jul-18 18:33N 32°00' E 120°48'6621346.7
2014-Jul-18 18:04N 23°04' E 113°30'6561039.1
2014-Jul-18 17:26N 31°60' E 120°37'5 6.0
2014-Jul-18 16:32N 32°01' E 120°31'6545088.2
2014-Jul-18 16:25N 23°04' E 113°30'10223.9
2014-Jul-18 16:22N 22°54' E 113°30'7 7.6
2014-Jul-18 15:27N 22°54' E 113°22'12296.6
2014-Jul-18 15:25N 23°04' E 113°30'10223.9
2014-Jul-18 15:22N 22°54' E 113°30'15545.2
2014-Jul-18 15:20N 23°03' E 113°17'1316.0
2014-Jul-18 14:33N 22°55' E 113°27'66780056.4
2014-Jul-18 14:33N 31°60' E 120°40'151088.5
2014-Jul-18 14:32N 32°01' E 120°23'6595552.7
2014-Jul-18 14:25N 22°54' E 113°30'102464.2
2014-Jul-18 14:25N 23°04' E 113°30'6571853.3
2014-Jul-18 14:03N 31°60' E 120°39'6641327.1
2014-Jul-18 13:33N 22°55' E 113°30'659131794.2
2014-Jul-18 13:33N 32°02' E 120°24'103148.9
2014-Jul-18 13:33N 31°60' E 120°35'11005.4
2014-Jul-18 13:33N 32°00' E 120°34'6641738.9
2014-Jul-18 13:10N 22°54' E 113°30'10119.5
2014-Jul-18 13:05N 23°04' E 113°29'6541248.7
2014-Jul-18 12:33N 32°02' E 120°29'31354.9
2014-Jul-18 12:33N 32°04' E 120°29'3882.1
2014-Jul-18 12:33N 32°01' E 120°31'660792091.8
2014-Jul-18 12:33N 23°03' E 113°20'91137.9
2014-Jul-18 12:32N 23°04' E 113°30'1 1.9
2014-Jul-18 12:05N 23°04' E 113°29'0 0.5
2014-Jul-18 11:33N 23°04' E 113°29'41136.0
2014-Jul-18 11:33N 23°03' E 113°25'66091395.5
2014-Jul-18 11:33N 32°02' E 120°35'6582233.5
2014-Jul-18 11:15N 23°02' E 113°31'37643637.6
2014-Jul-18 11:15N 26°05' E 119°32'3761976.5
2014-Jul-18 11:03N 23°04' E 113°29'6551308.1
2014-Jul-18 10:33N 32°01' E 120°31'655102447.6
2014-Jul-18 10:33N 23°04' E 113°29'370121160.9
2014-Jul-18 10:33N 25°59' E 119°28'37464144.8
2014-Jul-18 10:32N 23°03' E 113°25'6511171421.7
2014-Jul-18 10:32N 31°59' E 120°21'648291524.0
2014-Jul-18 10:32N 23°04' E 113°29'66023750.7
2014-Jul-18 10:30N 32°01' E 120°42'6624262.5
2014-Jul-18 10:21N 23°04' E 113°25'65045870.0
2014-Jul-18 10:20N 31°59' E 120°20'6533898.6
2014-Jul-18 10:10N 23°02' E 113°22'6681087.7
2014-Jul-18 09:33N 32°01' E 120°48'666479520.2
2014-Jul-18 09:33N 23°03' E 113°25'656262456.6
2014-Jul-18 09:33N 32°02' E 120°27'41646.5
2014-Jul-18 09:33N 32°00' E 120°23'9378.0
2014-Jul-18 09:32N 31°56' E 120°14'64419803.7
2014-Jul-18 09:30N 23°04' E 113°25'98612956.7
2014-Jul-18 09:25N 39°05' E 117°44'4451996.7
2014-Jul-18 09:12N 32°01' E 120°31'4 6.2
2014-Jul-18 08:33N 32°02' E 120°27'2850280.8
2014-Jul-18 08:33N 31°47' E 120°54'655214398.8
2014-Jul-18 08:33N 23°04' E 113°30'41241.5
2014-Jul-18 08:33N 23°03' E 113°25'651130277.4
2014-Jul-18 08:33N 31°59' E 120°22'444319650.1
2014-Jul-18 08:32N 39°05' E 117°46'44351490.3
2014-Jul-18 08:32N 31°56' E 120°07'433851.9
2014-Jul-18 08:31N 31°46' E 120°56'656147508.9
2014-Jul-18 08:31N 23°04' E 113°29'6551611.7
2014-Jul-18 08:07N 32°01' E 120°31'444800.5
2014-Jul-18 07:33N 39°05' E 117°46'985322453.5
2014-Jul-18 07:33N 23°04' E 113°30'653294013.7
2014-Jul-18 07:33N 32°02' E 120°28'653117612.7
2014-Jul-18 07:33N 23°04' E 113°30'41467.2
2014-Jul-18 07:33N 23°03' E 113°25'65964077.5
2014-Jul-18 07:32N 32°02' E 120°32'16393.8
2014-Jul-18 07:30N 31°56' E 120°15'642685.8
2014-Jul-18 06:33N 23°04' E 113°30'648116595.3
2014-Jul-18 06:33N 31°59' E 120°21'44430165.1
2014-Jul-18 06:32N 39°05' E 117°46'987197465.2
2014-Jul-18 06:32N 23°03' E 113°25'4170.3
2014-Jul-18 06:30N 23°04' E 113°30'6591977.3
2014-Jul-18 06:10N 31°25' E 121°32'73118.5
2014-Jul-18 05:33N 31°56' E 120°14'445400114.6
2014-Jul-18 05:33N 39°04' E 117°48'9851773120.8
2014-Jul-18 05:33N 23°04' E 113°30'0 5.0
2014-Jul-18 05:33N 23°04' E 113°30'48069.6
2014-Jul-18 05:33N 23°03' E 113°25'66435657.0
2014-Jul-18 05:32N 31°23' E 121°35'6663540.2
2014-Jul-18 05:20N 23°02' E 113°23'9891265.3
2014-Jul-18 04:33N 39°04' E 117°51'9871184739.9
2014-Jul-18 04:33N 23°03' E 113°25'41155.3
2014-Jul-18 04:33N 23°04' E 113°30'025.2
2014-Jul-18 04:33N 23°04' E 113°30'6381148580.2
2014-Jul-18 04:33N 31°57' E 120°06'8744966.4
2014-Jul-18 04:33N 31°21' E 121°40'56166.5
2014-Jul-18 04:13N 31°59' E 120°51'450685.1
2014-Jul-18 03:33N 39°04' E 117°50'987154541.1
2014-Jul-18 03:33N 23°03' E 113°25'4180.4
2014-Jul-18 03:32N 23°04' E 113°29'65567391.8
2014-Jul-18 03:31N 31°47' E 120°54'122196.7
2014-Jul-18 03:31N 31°59' E 120°51'6634113.9
2014-Jul-18 03:21N 23°04' E 113°30'9851238.5
2014-Jul-18 02:33N 39°04' E 117°50'985221686.7
2014-Jul-18 02:33N 23°04' E 113°30'98060.2
2014-Jul-18 02:33N 23°03' E 113°20'81884.6
2014-Jul-18 02:33N 23°04' E 113°29'4569.4
2014-Jul-18 02:32N 23°03' E 113°25'6659609.3
2014-Jul-18 02:28N 31°17' E 121°45'62576.0
2014-Jul-18 02:22N 31°59' E 120°51'1264.2
2014-Jul-18 02:11N 31°47' E 120°54'1625.9
2014-Jul-18 01:33N 32°00' E 120°43'446534987.1
2014-Jul-18 01:33N 39°03' E 117°51'985443292.3
2014-Jul-18 01:33N 23°04' E 113°29'12262.5
2014-Jul-18 01:33N 23°04' E 113°30'4248.9
2014-Jul-18 01:32N 23°03' E 113°25'1 0.9
2014-Jul-18 00:33N 23°04' E 113°25'658394774.8
2014-Jul-18 00:33N 31°60' E 120°35'656147508.6
2014-Jul-18 00:33N 23°04' E 113°29'0 1.9
2014-Jul-18 00:31N 23°04' E 113°29'4 3.8
2014-Jul-17 23:33N 23°04' E 113°25'44398.6
2014-Jul-17 23:33N 23°04' E 113°29'65429440.3
2014-Jul-17 23:32N 32°02' E 120°30'656664.5
2014-Jul-17 22:33N 23°04' E 113°25'4531.0
2014-Jul-17 22:32N 23°04' E 113°29'65416937.2
2014-Jul-17 22:30N 32°02' E 120°29'6543529.9
2014-Jul-17 22:19N 23°04' E 113°29'6413098.6
2014-Jul-17 22:07N 31°56' E 120°13'6431166.7
2014-Jul-17 21:33N 23°04' E 113°25'92802.0
2014-Jul-17 21:33N 22°55' E 113°25'663238715.6
2014-Jul-17 21:33N 32°02' E 120°27'6531175940.8
2014-Jul-17 21:33N 23°04' E 113°29'64037185.4
2014-Jul-17 21:32N 31°56' E 120°12'64036024.8
2014-Jul-17 21:31N 23°04' E 113°29'0 0.1
2014-Jul-17 20:33N 23°04' E 113°29'1315008.6
2014-Jul-17 20:33N 22°52' E 113°33'143273.8
2014-Jul-17 20:33N 23°04' E 113°25'65041807.9
2014-Jul-17 20:32N 31°59' E 120°22'1596.1
2014-Jul-17 20:22N 31°57' E 120°04'63871753.3
2014-Jul-17 20:22N 23°04' E 113°29'3 4.2
2014-Jul-17 19:33N 23°04' E 113°25'76680.3
2014-Jul-17 19:33N 22°58' E 113°30'65369088.7
2014-Jul-17 19:32N 31°59' E 120°22'732004.4
2014-Jul-17 19:30N 31°15' E 121°30'441114.6
2014-Jul-17 19:28N 31°47' E 120°54'657723.7
2014-Jul-17 18:33N 23°04' E 113°25'65824426.8
2014-Jul-17 18:31N 31°19' E 121°33'66491947.9
2014-Jul-17 18:31N 22°54' E 113°28'65720933.8
2014-Jul-17 18:29N 31°59' E 120°22'6483825.7
2014-Jul-17 18:19N 23°04' E 113°29'3 4.5
2014-Jul-17 17:33N 23°04' E 113°25'65926347.7
2014-Jul-17 17:32N 31°22' E 121°30'691680.7
2014-Jul-17 17:29N 31°59' E 120°22'69227087.4
2014-Jul-17 17:28N 22°11' E 113°32'53368.5
2014-Jul-17 17:19N 23°04' E 113°29'3 4.5
2014-Jul-17 16:33N 23°04' E 113°25'65030402.2
2014-Jul-17 16:32N 31°59' E 120°22'1211516.9
2014-Jul-17 16:27N 30°44' E 122°13'541110.9
2014-Jul-17 16:24N 31°25' E 121°32'6607174.7
2014-Jul-17 16:19N 23°04' E 113°29'3 4.6
2014-Jul-17 15:33N 23°04' E 113°25'3101.9
2014-Jul-17 15:31N 23°04' E 113°29'6487455.4
2014-Jul-17 15:26N 31°59' E 120°22'125830.8
2014-Jul-17 15:17N 30°37' E 122°13'653897.3
2014-Jul-17 14:33N 23°04' E 113°25'65031212.9
2014-Jul-17 14:32N 31°59' E 120°22'1306992.7
2014-Jul-17 14:31N 30°34' E 122°17'6523221.7
2014-Jul-17 14:19N 23°04' E 113°29'65613115.6
2014-Jul-17 14:16N 31°46' E 120°56'7026133.2
2014-Jul-17 14:09N 22°09' E 113°28'5592.6
2014-Jul-17 13:33N 23°04' E 113°25'649179780.5
2014-Jul-17 13:33N 31°59' E 120°21'13554163.7
2014-Jul-17 13:33N 30°32' E 122°23'65418530.3
2014-Jul-17 13:31N 23°04' E 113°29'65640013.6
2014-Jul-17 13:30N 31°46' E 120°56'7003788.8
2014-Jul-17 13:19N 22°10' E 113°31'5471.8
2014-Jul-17 12:33N 23°04' E 113°25'644210753.6
2014-Jul-17 12:33N 31°56' E 120°14'68674790.4
2014-Jul-17 12:33N 22°11' E 113°33'69165418.0
2014-Jul-17 12:32N 30°30' E 122°25'65438610.8
2014-Jul-17 12:31N 23°04' E 113°29'6562080.0
2014-Jul-17 12:12N 31°46' E 120°56'4163.8
2014-Jul-17 11:33N 31°56' E 120°09'68255814.6
2014-Jul-17 11:33N 22°10' E 113°36'390701801.4
2014-Jul-17 11:33N 25°57' E 119°23'36945824.6
2014-Jul-17 11:32N 23°04' E 113°25'65523130.5
2014-Jul-17 11:30N 30°27' E 122°26'6534634.2
2014-Jul-17 11:22N 23°04' E 113°29'6393973.3
2014-Jul-17 11:12N 32°03' E 119°58'68118300.5
2014-Jul-17 11:10N 22°22' E 113°18'343962.1
2014-Jul-17 11:10N 22°54' E 113°28'431295.5
2014-Jul-17 11:08N 22°12' E 113°36'5393.1
2014-Jul-17 10:33N 23°04' E 113°25'64071960.1
2014-Jul-17 10:33N 31°57' E 120°03'63819450.1
2014-Jul-17 10:31N 23°04' E 113°29'65273370.7
2014-Jul-17 10:30N 30°25' E 122°27'1577861.2
2014-Jul-17 10:29N 31°59' E 120°00'3648181.1
2014-Jul-17 10:27N 25°57' E 119°23'3697268.1
2014-Jul-17 10:23N 22°55' E 113°30'406496.1
2014-Jul-17 10:23N 22°17' E 113°20'141167.4
2014-Jul-17 10:22N 22°14' E 113°35'6946700.0
2014-Jul-17 10:16N 31°23' E 121°30'86473.2
2014-Jul-17 10:05N 32°00' E 119°60'158297.2
2014-Jul-17 09:33N 30°25' E 122°27'652123585.5
2014-Jul-17 09:33N 23°04' E 113°30'638143558.3
2014-Jul-17 09:33N 31°58' E 120°02'4589.6
2014-Jul-17 09:32N 31°58' E 120°06'63925568.3
2014-Jul-17 09:31N 23°04' E 113°29'248.4
2014-Jul-17 09:28N 23°03' E 113°30'65671618.1
2014-Jul-17 09:28N 31°21' E 121°30'6716544.5
2014-Jul-17 09:22N 22°19' E 114°09'3612993.2
2014-Jul-17 09:15N 25°57' E 119°23'369537.0
2014-Jul-17 08:33N 23°04' E 113°25'658592531.8
2014-Jul-17 08:33N 31°21' E 121°30'6920611.6
2014-Jul-17 08:33N 31°58' E 120°22'652130483.7
2014-Jul-17 08:33N 22°57' E 113°33'655107216.2
2014-Jul-17 08:32N 30°25' E 122°27'6523696.1
2014-Jul-17 08:22N 23°04' E 113°30'6385247.3
2014-Jul-17 08:15N 31°56' E 120°08'3613616.2
2014-Jul-17 08:09N 25°57' E 119°23'313534.5
2014-Jul-17 07:33N 30°25' E 122°27'31343322.1
2014-Jul-17 07:33N 25°57' E 119°23'37413756.4
2014-Jul-17 07:31N 23°03' E 113°19'66314375.7
2014-Jul-17 07:29N 31°21' E 121°31'765233.9
2014-Jul-17 07:28N 31°56' E 120°12'6416572.0
2014-Jul-17 07:22N 23°04' E 113°30'6383036.0
2014-Jul-17 07:09N 31°56' E 120°08'79132.0
2014-Jul-17 06:33N 31°21' E 121°31'499256869.6
2014-Jul-17 06:33N 39°05' E 117°44'4458899.2
2014-Jul-17 06:30N 31°56' E 120°08'63815528.9
2014-Jul-17 06:28N 23°04' E 113°30'9851087.1
2014-Jul-17 05:33N 39°04' E 117°48'44311819.0
2014-Jul-17 05:31N 31°56' E 120°08'63811377.7
2014-Jul-17 05:28N 23°04' E 113°30'9861087.0
2014-Jul-17 04:33N 39°05' E 117°45'4419173.7
2014-Jul-17 04:31N 31°58' E 120°03'68688182.6
2014-Jul-17 04:30N 22°10' E 113°27'68615061.6
2014-Jul-17 04:27N 31°56' E 120°08'6383330.9
2014-Jul-17 04:16N 23°04' E 113°30'13155.8
2014-Jul-17 04:11N 22°51' E 113°34'9971598.5
2014-Jul-17 03:34N 39°05' E 117°46'10381245335.0
2014-Jul-17 03:33N 22°10' E 113°31'69922655.5
2014-Jul-17 03:32N 31°47' E 120°54'40231.9
2014-Jul-17 03:21N 31°56' E 120°08'6387204.8
2014-Jul-17 03:16N 23°04' E 113°30'639904.5
2014-Jul-17 02:33N 31°56' E 120°10'64822872.3
2014-Jul-17 02:32N 22°51' E 113°34'13196.4
2014-Jul-17 02:28N 23°04' E 113°30'12471.3
2014-Jul-17 02:26N 23°03' E 113°17'11004335.9
2014-Jul-17 02:11N 35°08' E 129°03'4836481.4
2014-Jul-17 02:07N 31°57' E 120°12'4 6.6
2014-Jul-17 01:33N 31°57' E 120°16'479430791.7
2014-Jul-17 01:33N 35°06' E 129°03'590193163.8
2014-Jul-17 01:33N 39°05' E 117°46'445320236.1
2014-Jul-17 01:33N 31°57' E 120°14'65139041.0
2014-Jul-17 01:32N 22°51' E 113°34'1347.7
2014-Jul-17 01:16N 23°04' E 113°30'561310.4
2014-Jul-17 01:13N 22°07' E 113°33'58605.1
2014-Jul-17 01:08N 23°03' E 113°16'6531146.4
2014-Jul-17 00:33N 31°58' E 120°18'4772.0
2014-Jul-17 00:33N 31°60' E 120°22'65765734.9
2014-Jul-17 00:32N 22°51' E 113°34'442228.2
2014-Jul-17 00:31N 22°07' E 113°33'2790.1
2014-Jul-17 00:13N 22°27' E 113°52'42703.5
2014-Jul-17 00:10N 23°04' E 113°30'6491063.8
2014-Jul-16 23:33N 31°60' E 120°23'6760.2
2014-Jul-16 23:33N 32°02' E 120°29'282449.3
2014-Jul-16 23:32N 31°46' E 120°56'664125764.3
2014-Jul-16 23:32N 22°51' E 113°34'444395.1
2014-Jul-16 23:31N 22°07' E 113°33'112961587.4
2014-Jul-16 23:30N 35°07' E 129°03'109029510.1
2014-Jul-16 23:28N 23°04' E 113°30'657722.8
2014-Jul-16 22:33N 32°00' E 120°37'84006.8
2014-Jul-16 22:33N 32°02' E 120°28'66327416.8
2014-Jul-16 22:32N 22°51' E 113°34'1477.9
2014-Jul-16 22:21N 23°04' E 113°29'1458.3
2014-Jul-16 22:07N 22°51' E 113°34'1 1.0
2014-Jul-16 21:33N 22°51' E 113°34'66529185.0
2014-Jul-16 21:31N 32°01' E 120°35'6569806.1
2014-Jul-16 21:27N 23°04' E 113°29'57413.5
2014-Jul-16 21:19N 22°07' E 113°33'5661.5
2014-Jul-16 20:24N 23°04' E 113°32'320.3
2014-Jul-16 20:15N 23°04' E 113°29'0 0.0
2014-Jul-16 18:33N 23°04' E 113°29'656124249.9
2014-Jul-16 18:33N 31°46' E 120°56'7013014.1
2014-Jul-16 18:19N 22°07' E 113°33'701920.1
2014-Jul-16 17:33N 31°46' E 120°56'6565661.6
2014-Jul-16 17:26N 23°04' E 113°29'572498.1
2014-Jul-16 17:25N 22°07' E 113°33'7042372.7
2014-Jul-16 17:07N 31°38' E 121°16'7041166.2
2014-Jul-16 16:31N 22°07' E 113°33'70147601.0
2014-Jul-16 16:30N 31°46' E 120°56'65610540.4
2014-Jul-16 16:26N 23°04' E 113°29'6592781.9
2014-Jul-16 16:12N 31°34' E 121°19'2335.7
2014-Jul-16 15:33N 31°46' E 120°56'265913.4
2014-Jul-16 15:33N 31°32' E 121°22'70319460.0
2014-Jul-16 15:31N 22°07' E 113°33'57205.7
2014-Jul-16 15:14N 23°04' E 113°29'13304.9
2014-Jul-16 15:12N 22°51' E 113°34'6641023.3
2014-Jul-16 14:33N 31°46' E 120°56'66448770.8
2014-Jul-16 14:32N 22°51' E 113°34'66711438.0
2014-Jul-16 14:29N 31°29' E 121°27'6601966.1
2014-Jul-16 14:08N 23°04' E 113°29'6591123.6
2014-Jul-16 13:33N 31°27' E 121°29'6656267.9
2014-Jul-16 13:27N 23°02' E 113°22'7968.9
2014-Jul-16 13:26N 23°04' E 113°29'1039.9
2014-Jul-16 13:11N 22°55' E 113°25'9205.1
2014-Jul-16 13:08N 22°51' E 113°34'441233.4
2014-Jul-16 13:06N 22°07' E 113°33'4787.2
2014-Jul-16 12:33N 22°55' E 113°28'1036349.7
2014-Jul-16 12:33N 23°05' E 113°26'66174372.7
2014-Jul-16 12:33N 31°25' E 121°31'6603182.8
2014-Jul-16 12:20N 23°04' E 113°29'14219.3
2014-Jul-16 12:17N 22°51' E 113°34'667912.7
2014-Jul-16 11:33N 31°25' E 121°32'66036549.1
2014-Jul-16 11:32N 23°04' E 113°29'0 0.9
2014-Jul-16 11:20N 23°04' E 113°29'658830.0
2014-Jul-16 10:33N 31°24' E 121°31'66622193.6
2014-Jul-16 10:31N 22°51' E 113°34'3716887.0
2014-Jul-16 10:28N 25°58' E 119°26'36816579.8
2014-Jul-16 10:26N 23°04' E 113°29'0 2.2
2014-Jul-16 10:23N 23°04' E 113°29'57303.5
2014-Jul-16 10:12N 22°07' E 113°33'24373.3
2014-Jul-16 10:08N 22°20' E 113°55'3763.6
2014-Jul-16 09:33N 22°51' E 113°34'14901.4
2014-Jul-16 09:32N 23°04' E 113°29'504614.5
2014-Jul-16 09:32N 22°19' E 113°52'67971911.2
2014-Jul-16 09:31N 31°22' E 121°30'6567925.4
2014-Jul-16 09:26N 23°04' E 113°29'3684912.9
2014-Jul-16 09:22N 25°58' E 119°26'3961511.7
2014-Jul-16 09:06N 22°07' E 113°33'1833.6
2014-Jul-16 08:33N 22°17' E 113°50'68242346.3
2014-Jul-16 08:33N 31°22' E 121°30'656590432.3
2014-Jul-16 08:32N 23°04' E 113°29'3684687.1
2014-Jul-16 08:28N 25°58' E 119°26'3718298.6
2014-Jul-16 08:25N 22°51' E 113°34'13271.2
2014-Jul-16 08:22N 23°04' E 113°30'1316.1
2014-Jul-16 07:33N 22°51' E 113°34'663183699.2
2014-Jul-16 07:33N 31°22' E 121°30'6992516471.9
2014-Jul-16 07:33N 22°07' E 113°33'579311.2
2014-Jul-16 07:32N 23°04' E 113°29'132.3
2014-Jul-16 07:31N 23°04' E 113°30'010.2
2014-Jul-16 07:29N 23°04' E 113°29'525228.6
2014-Jul-16 07:28N 22°14' E 113°46'40357.3
2014-Jul-16 07:22N 22°52' E 113°33'3713776.0
2014-Jul-16 07:16N 25°58' E 119°26'388543.3
2014-Jul-16 06:33N 22°12' E 113°41'1034155153.4
2014-Jul-16 06:33N 39°05' E 117°45'98547291.6
2014-Jul-16 06:31N 23°04' E 113°29'65621469.9
2014-Jul-16 06:29N 31°22' E 121°30'65613121.0
2014-Jul-16 06:26N 23°04' E 113°29'128.0
2014-Jul-16 06:25N 23°04' E 113°30'36830108.8
2014-Jul-16 06:24N 25°58' E 119°26'3718790.6
2014-Jul-16 06:22N 22°51' E 113°34'3098.2
2014-Jul-16 06:03N 22°23' E 113°43'1428.4
2014-Jul-16 05:33N 22°10' E 113°36'10371244269.2
2014-Jul-16 05:33N 39°04' E 117°48'79167779.1
2014-Jul-16 05:33N 25°58' E 119°26'36973702.9
2014-Jul-16 05:32N 23°04' E 113°29'65632357.0
2014-Jul-16 05:31N 31°21' E 121°30'6563363.4
2014-Jul-16 05:19N 23°04' E 113°30'1 4.1
2014-Jul-16 05:10N 23°04' E 113°29'9851608.7
2014-Jul-16 04:34N 39°04' E 117°48'79060543.6
2014-Jul-16 04:33N 25°58' E 119°26'36969823.8
2014-Jul-16 04:32N 23°04' E 113°29'6562361826.6
2014-Jul-16 04:32N 31°22' E 121°30'65643720.3
2014-Jul-16 04:31N 23°04' E 113°30'1 9.9
2014-Jul-16 04:28N 23°04' E 113°29'48547.1
2014-Jul-16 04:23N 22°18' E 113°42'12143.9
2014-Jul-16 04:18N 22°10' E 113°32'41194.7
2014-Jul-16 04:05N 22°52' E 113°33'9971881.3
2014-Jul-16 03:34N 39°04' E 117°46'49799489.7
2014-Jul-16 03:33N 31°22' E 121°30'689309943.9
2014-Jul-16 03:33N 22°15' E 113°41'514473.5
2014-Jul-16 03:32N 23°04' E 113°29'146.3
2014-Jul-16 03:31N 23°04' E 113°30'5155.1
2014-Jul-16 03:30N 23°02' E 113°24'551489.9
2014-Jul-16 03:27N 22°07' E 113°33'39641976.6
2014-Jul-16 03:27N 25°58' E 119°26'3745734.9
2014-Jul-16 03:23N 22°54' E 113°28'454957.2
2014-Jul-16 03:22N 22°09' E 113°29'75256.0
2014-Jul-16 03:05N 23°23' E 113°13'2243.3
2014-Jul-16 02:34N 23°03' E 113°25'659158162.4
2014-Jul-16 02:33N 31°22' E 121°30'495297282.4
2014-Jul-16 02:33N 39°04' E 117°51'49565991.9
2014-Jul-16 02:33N 31°21' E 121°27'6892478810.6
2014-Jul-16 02:33N 22°15' E 113°39'509075.0
2014-Jul-16 02:32N 23°04' E 113°29'65681375.1
2014-Jul-16 02:32N 32°00' E 120°35'3674266.1
2014-Jul-16 02:27N 25°58' E 119°26'3683074.1
2014-Jul-16 02:20N 23°04' E 113°30'9851283.9
2014-Jul-16 01:34N 39°05' E 117°44'443797996.9
2014-Jul-16 01:33N 32°02' E 120°28'692498076.3
2014-Jul-16 01:33N 22°14' E 113°38'691828791.3
2014-Jul-16 01:33N 31°22' E 121°30'65640721.9
2014-Jul-16 01:32N 23°04' E 113°29'142.5
2014-Jul-16 01:31N 23°04' E 113°30'57803.0
2014-Jul-16 01:27N 22°07' E 113°33'7157.1
2014-Jul-16 01:25N 22°10' E 113°26'4006456.1
2014-Jul-16 01:21N 25°58' E 119°26'389491.5
2014-Jul-16 00:33N 22°15' E 113°38'691226013.8
2014-Jul-16 00:33N 31°22' E 121°30'34251244.5
2014-Jul-16 00:33N 25°58' E 119°26'36512269.4
2014-Jul-16 00:31N 31°59' E 120°22'6482333707.3
2014-Jul-16 00:31N 23°04' E 113°29'656683.1
2014-Jul-15 23:33N 31°22' E 121°30'7217199.2
2014-Jul-15 23:33N 31°57' E 120°16'36261984.3
2014-Jul-15 23:33N 25°58' E 119°26'38913714.4
2014-Jul-15 23:31N 22°14' E 113°38'5045359.2
2014-Jul-15 23:31N 23°04' E 113°29'0 4.0
2014-Jul-15 23:25N 23°04' E 113°29'65615138.9
2014-Jul-15 23:23N 31°47' E 120°56'66459768.8
2014-Jul-15 23:22N 22°53' E 113°32'1291.5
2014-Jul-15 23:14N 23°04' E 113°29'5073.7
2014-Jul-15 22:33N 22°15' E 113°38'691414349.8
2014-Jul-15 22:33N 31°22' E 121°30'699419425.9
2014-Jul-15 22:33N 22°07' E 113°33'701100947.4
2014-Jul-15 22:33N 31°46' E 120°56'358643550.0
2014-Jul-15 22:33N 25°58' E 119°26'36912637.7
2014-Jul-15 22:31N 23°04' E 113°29'0 8.3
2014-Jul-15 22:28N 23°04' E 113°29'6407483.3
2014-Jul-15 22:23N 31°56' E 120°11'64013558.0
2014-Jul-15 22:20N 23°04' E 113°29'5064.4
2014-Jul-15 21:33N 22°15' E 113°38'69162152.0
2014-Jul-15 21:33N 31°22' E 121°30'6568912.1
2014-Jul-15 21:28N 23°04' E 113°29'36813960.2
2014-Jul-15 21:27N 25°58' E 119°26'4005126.5
2014-Jul-15 21:22N 22°11' E 113°25'53212.1
2014-Jul-15 21:07N 23°04' E 113°29'5089.9
2014-Jul-15 20:33N 22°15' E 113°38'87604.8
2014-Jul-15 20:33N 22°07' E 113°33'689225653.3
2014-Jul-15 20:33N 31°57' E 120°15'36152007.9
2014-Jul-15 20:33N 25°58' E 119°27'36912909.3
2014-Jul-15 20:31N 23°04' E 113°29'656168687.3
2014-Jul-15 20:31N 31°46' E 120°56'11317609.5
2014-Jul-15 20:30N 30°25' E 122°27'7529886.9
2014-Jul-15 20:30N 31°22' E 121°30'6568006.0
2014-Jul-15 20:25N 23°04' E 113°29'494595.1
2014-Jul-15 20:25N 22°16' E 113°21'49681.7
2014-Jul-15 20:20N 23°04' E 113°29'5772.5
2014-Jul-15 19:33N 22°07' E 113°33'82027.9
2014-Jul-15 19:33N 22°15' E 113°38'2010327.5
2014-Jul-15 19:33N 22°22' E 113°18'444949.9
2014-Jul-15 19:32N 23°04' E 113°29'656147586.5
2014-Jul-15 19:32N 31°46' E 120°56'333227.8
2014-Jul-15 19:32N 31°60' E 120°20'703472.4
2014-Jul-15 19:30N 31°22' E 121°30'6562333.7
2014-Jul-15 19:13N 23°04' E 113°29'0 2.4
2014-Jul-15 19:04N 23°04' E 113°29'5097.7
2014-Jul-15 18:33N 22°15' E 113°38'688165098.2
2014-Jul-15 18:33N 32°00' E 120°23'650101710.9
2014-Jul-15 18:32N 23°04' E 113°29'65634229.4
2014-Jul-15 18:31N 31°22' E 121°30'656147624.1
2014-Jul-15 18:31N 23°04' E 113°29'57918.5
2014-Jul-15 18:27N 22°07' E 113°33'70238862.2
2014-Jul-15 18:26N 31°24' E 121°31'6592867.0
2014-Jul-15 18:12N 23°04' E 113°29'0 0.3
2014-Jul-15 17:33N 23°04' E 113°29'5020012.7
2014-Jul-15 17:33N 22°15' E 113°38'69199487.0
2014-Jul-15 17:33N 32°02' E 120°27'672917.9
2014-Jul-15 17:31N 31°22' E 121°30'6994201.2
2014-Jul-15 17:21N 22°07' E 113°33'573793.4
2014-Jul-15 17:20N 23°04' E 113°29'6565677.1
2014-Jul-15 17:13N 31°47' E 120°56'65638091.7
2014-Jul-15 17:12N 23°04' E 113°29'6551009.3
2014-Jul-15 16:33N 32°02' E 120°31'693623794.6
2014-Jul-15 16:33N 22°15' E 113°38'691497216.4
2014-Jul-15 16:33N 31°22' E 121°30'65641435.3
2014-Jul-15 16:32N 23°04' E 113°29'0 4.1
2014-Jul-15 16:27N 23°04' E 113°29'57187.6
2014-Jul-15 16:09N 22°07' E 113°33'814.0
2014-Jul-15 15:33N 22°15' E 113°38'691108090.5
2014-Jul-15 15:33N 31°22' E 121°30'6567473.4
2014-Jul-15 15:27N 23°04' E 113°29'018.9
2014-Jul-15 15:26N 23°04' E 113°29'127.8
2014-Jul-15 15:25N 23°04' E 113°30'0 0.3
2014-Jul-15 14:33N 23°04' E 113°29'5011282.4
2014-Jul-15 14:33N 22°15' E 113°38'691118385.6
2014-Jul-15 14:33N 31°22' E 121°30'33426687.4
2014-Jul-15 14:32N 26°05' E 119°31'3768508.8
2014-Jul-15 14:29N 23°04' E 113°29'1 8.2
2014-Jul-15 14:25N 23°04' E 113°30'5058.2
2014-Jul-15 13:33N 22°15' E 113°38'4733486.5
2014-Jul-15 13:33N 23°01' E 113°31'65838811.4
2014-Jul-15 13:32N 31°22' E 121°30'75276.2
2014-Jul-15 13:16N 30°25' E 122°27'6526648.2
2014-Jul-15 13:10N 23°04' E 113°30'65839453.9
2014-Jul-15 13:09N 31°60' E 120°40'5795.3
2014-Jul-15 12:33N 31°22' E 121°30'6036208.0
2014-Jul-15 12:33N 32°00' E 120°35'693831999.6
2014-Jul-15 12:33N 22°15' E 113°38'401388.4
2014-Jul-15 12:31N 22°54' E 113°31'1065.6
2014-Jul-15 12:22N 23°04' E 113°30'3161732.8
2014-Jul-15 12:11N 19°42' E 109°09'294466.2
2014-Jul-15 11:33N 22°15' E 113°38'692191629.0
2014-Jul-15 11:33N 32°02' E 120°29'66623041.3
2014-Jul-15 11:31N 22°54' E 113°23'6688461.8
2014-Jul-15 11:27N 31°22' E 121°30'691777.6
2014-Jul-15 10:33N 22°15' E 113°38'68988525.1
2014-Jul-15 10:33N 31°59' E 120°27'652371.3
2014-Jul-15 10:31N 31°22' E 121°30'6566381.0
2014-Jul-15 10:25N 23°04' E 113°30'656761.6
2014-Jul-15 09:33N 31°22' E 121°30'6810615.8
2014-Jul-15 09:33N 31°58' E 120°23'6861234606.5
2014-Jul-15 09:33N 22°15' E 113°38'6776075.5
2014-Jul-15 09:26N 31°58' E 120°03'63831030.3
2014-Jul-15 09:25N 23°04' E 113°30'656753.3
2014-Jul-15 08:33N 31°22' E 121°30'713689.3
2014-Jul-15 08:32N 31°57' E 120°18'6831229346.2
2014-Jul-15 08:32N 22°15' E 113°38'6792910.8
2014-Jul-15 08:18N 31°57' E 120°11'6415068.5
2014-Jul-15 08:10N 23°04' E 113°30'6561072.2
2014-Jul-15 07:33N 31°22' E 121°30'69159190.8
2014-Jul-15 07:33N 22°15' E 113°38'6799477.7
2014-Jul-15 07:28N 31°56' E 120°11'1592.8
2014-Jul-15 07:28N 31°56' E 120°11'561100938.5
2014-Jul-15 07:28N 23°08' E 116°38'5662037878.3
2014-Jul-15 07:28N 31°58' E 120°20'64728740.9
2014-Jul-15 07:27N 23°04' E 113°30'5056.5
2014-Jul-15 06:33N 22°15' E 113°38'69167190.9
2014-Jul-15 06:33N 31°22' E 121°30'69911135.3
2014-Jul-15 06:29N 22°07' E 113°33'706110535.0
2014-Jul-15 06:29N 31°55' E 120°52'456117344.1
2014-Jul-15 06:28N 39°05' E 117°44'4457188.6
2014-Jul-15 06:25N 31°56' E 120°11'112.6
2014-Jul-15 06:20N 31°57' E 120°10'6465379.8
2014-Jul-15 06:12N 23°02' E 113°22'65030005.8
2014-Jul-15 06:11N 31°57' E 120°19'6831087.8
2014-Jul-15 05:33N 22°15' E 113°38'691497202.4
2014-Jul-15 05:33N 31°22' E 121°30'4981793269.8
2014-Jul-15 05:33N 39°05' E 117°45'445160035.6
2014-Jul-15 05:33N 31°56' E 120°11'33201.6
2014-Jul-15 05:33N 31°56' E 120°14'68938133.7
2014-Jul-15 05:32N 22°07' E 113°33'68955097.2
2014-Jul-15 05:31N 31°57' E 120°13'443459.9
2014-Jul-15 04:33N 39°04' E 117°50'443227927.3
2014-Jul-15 04:33N 31°57' E 120°15'21137.9
2014-Jul-15 04:33N 31°58' E 120°17'68349160.1
2014-Jul-15 04:32N 22°15' E 113°38'68261410.7
2014-Jul-15 04:32N 30°25' E 122°27'663149131.8
2014-Jul-15 04:31N 22°54' E 113°23'6 6.2
2014-Jul-15 03:33N 22°54' E 113°17'662397459.8
2014-Jul-15 03:33N 31°60' E 120°20'7036174.8
2014-Jul-15 03:33N 31°22' E 121°30'7113361.5
2014-Jul-15 03:33N 31°59' E 120°20'655262185.3
2014-Jul-15 03:33N 22°54' E 113°31'4047595.1
2014-Jul-15 03:33N 22°15' E 113°38'103319771.6
2014-Jul-15 03:30N 39°05' E 117°44'4453346.8
2014-Jul-15 03:22N 31°57' E 120°13'6442549.9
2014-Jul-15 03:06N 23°04' E 113°25'6531187.4
2014-Jul-15 02:34N 32°00' E 120°24'441397313.8
2014-Jul-15 02:33N 39°04' E 117°50'44359065.9
2014-Jul-15 02:33N 31°57' E 120°16'83605.6
2014-Jul-15 02:33N 32°02' E 120°24'682306925.2
2014-Jul-15 02:33N 22°18' E 113°48'397430.7
2014-Jul-15 02:32N 22°53' E 113°30'403751.5
2014-Jul-15 02:32N 22°15' E 113°38'4526893.4
2014-Jul-15 02:32N 22°59' E 113°31'11261.5
2014-Jul-15 02:29N 23°03' E 113°19'66316798.3
2014-Jul-15 02:27N 31°22' E 121°30'664217248.7
2014-Jul-15 02:27N 22°54' E 113°30'114979.1
2014-Jul-15 02:26N 23°04' E 113°28'5866.0
2014-Jul-15 01:34N 22°06' E 113°33'94760.7
2014-Jul-15 01:33N 22°15' E 113°38'6822456442.5
2014-Jul-15 01:33N 30°25' E 122°27'14146175.5
2014-Jul-15 01:33N 32°02' E 120°27'65467219.2
2014-Jul-15 01:33N 23°04' E 113°29'655262018.6
2014-Jul-15 01:32N 32°04' E 120°27'685969.7
2014-Jul-15 01:32N 31°22' E 121°30'65634243.8
2014-Jul-15 01:31N 23°03' E 113°31'4950.9
2014-Jul-15 00:33N 22°15' E 113°38'5136427.6
2014-Jul-15 00:33N 23°04' E 113°25'653293698.3
2014-Jul-15 00:33N 32°00' E 120°24'73231.7
2014-Jul-15 00:33N 32°02' E 120°32'656337174.3
2014-Jul-15 00:33N 23°04' E 113°29'641128177.4
2014-Jul-15 00:33N 31°56' E 120°12'14715559.5
2014-Jul-15 00:32N 30°25' E 122°27'13353146.6
2014-Jul-15 00:32N 31°60' E 120°38'6651196213.8
2014-Jul-15 00:32N 22°53' E 113°31'665682.7
2014-Jul-14 23:33N 32°01' E 120°37'62485.9
2014-Jul-14 23:33N 32°02' E 120°30'6438681.6
2014-Jul-14 23:33N 31°22' E 121°30'757919.2
2014-Jul-14 23:33N 31°56' E 120°12'1553557.2
2014-Jul-14 23:33N 32°03' E 120°28'654117715.8
2014-Jul-14 23:32N 23°04' E 113°29'6141.6
2014-Jul-14 23:30N 22°58' E 113°30'655692.1
2014-Jul-14 22:33N 31°59' E 120°27'651390637.0
2014-Jul-14 22:33N 23°04' E 113°29'656787287.9
2014-Jul-14 22:33N 31°22' E 121°30'6210180.8
2014-Jul-14 22:33N 32°01' E 120°34'7109.3
2014-Jul-14 22:29N 32°01' E 120°42'66833884.6
2014-Jul-14 22:28N 22°54' E 113°28'6507982.2
2014-Jul-14 22:23N 31°56' E 120°12'1496.1
2014-Jul-14 22:14N 32°01' E 119°57'27245.7
2014-Jul-14 22:08N 32°04' E 120°29'3 5.5
2014-Jul-14 21:33N 32°04' E 120°32'65778859.9
2014-Jul-14 21:33N 23°04' E 113°29'65619202.0
2014-Jul-14 21:31N 31°22' E 121°30'7524477.9
2014-Jul-14 21:31N 30°25' E 122°27'1324561.2
2014-Jul-14 21:29N 32°00' E 120°40'25157.4
2014-Jul-14 21:20N 31°56' E 120°12'6504343.3
2014-Jul-14 21:11N 22°55' E 113°26'6685391.5
2014-Jul-14 21:03N 31°55' E 120°48'6591304.2
2014-Jul-14 20:33N 23°04' E 113°29'64228894.7
2014-Jul-14 20:32N 31°57' E 120°14'745885.3
2014-Jul-14 20:31N 31°22' E 121°30'66422542.0
2014-Jul-14 20:29N 22°53' E 113°30'64911347.1
2014-Jul-14 20:26N 31°56' E 120°12'14735297.3
2014-Jul-14 20:25N 30°25' E 122°27'118603.7
2014-Jul-14 20:14N 31°50' E 120°51'2740.7
2014-Jul-14 19:33N 31°59' E 120°20'64793145.1
2014-Jul-14 19:33N 23°04' E 113°30'13101.9
2014-Jul-14 19:25N 22°51' E 113°33'6585266.8
2014-Jul-14 19:18N 30°25' E 122°27'1472151.6
2014-Jul-14 19:14N 31°56' E 120°12'75111.3
2014-Jul-14 18:33N 31°22' E 121°30'656590228.0
2014-Jul-14 18:33N 23°04' E 113°30'65278233.0
2014-Jul-14 18:33N 30°25' E 122°27'1477900.2
2014-Jul-14 18:32N 31°56' E 120°12'56372417.3
2014-Jul-14 18:31N 22°33' E 120°14'3661093.5
2014-Jul-14 18:11N 22°15' E 113°38'2834783.6
2014-Jul-14 18:08N 24°21' E 118°14'4 6.7
2014-Jul-14 17:33N 24°21' E 118°10'2801008214.5
2014-Jul-14 17:33N 22°15' E 113°38'5022553.3
2014-Jul-14 17:33N 23°04' E 113°30'65671542.8
2014-Jul-14 17:33N 31°22' E 121°30'754270.6
2014-Jul-14 17:32N 31°56' E 120°12'147604.1
2014-Jul-14 17:17N 30°25' E 122°27'682937.6
2014-Jul-14 16:33N 22°15' E 113°38'691310743.0
2014-Jul-14 16:33N 31°22' E 121°30'6562360911.9
2014-Jul-14 16:33N 23°04' E 113°30'26523227.0
2014-Jul-14 16:33N 24°25' E 118°05'4657064.5
2014-Jul-14 16:29N 31°56' E 120°12'68531217.5
2014-Jul-14 16:27N 22°21' E 113°13'6936013.3
2014-Jul-14 16:20N 30°25' E 122°27'682871.5
2014-Jul-14 15:33N 22°15' E 113°38'5025775.2
2014-Jul-14 15:33N 23°04' E 113°30'65620709.8
2014-Jul-14 15:31N 31°22' E 121°30'753408.5
2014-Jul-14 15:30N 30°25' E 122°27'1476084.1
2014-Jul-14 15:29N 31°56' E 120°12'68245001.4
2014-Jul-14 15:29N 31°30' E 121°26'6998410.2
2014-Jul-14 15:24N 22°28' E 113°12'698831.6
2014-Jul-14 14:33N 31°27' E 121°29'660124973.0
2014-Jul-14 14:33N 23°04' E 113°29'5013942.7
2014-Jul-14 14:33N 22°15' E 113°38'291116429.2
2014-Jul-14 14:33N 19°44' E 109°11'94314329.3
2014-Jul-14 14:29N 31°56' E 120°12'14715568.4
2014-Jul-14 14:28N 30°25' E 122°27'6903431.0
2014-Jul-14 14:16N 22°22' E 113°17'2028.6
2014-Jul-14 13:33N 22°15' E 113°38'5022656.8
2014-Jul-14 13:33N 23°04' E 113°29'65625953.2
2014-Jul-14 13:32N 31°22' E 121°30'41219.9
2014-Jul-14 13:32N 31°25' E 121°32'70242821.6
2014-Jul-14 13:31N 22°18' E 113°20'6855170.9
2014-Jul-14 13:23N 31°56' E 120°12'6495324.7
2014-Jul-14 13:15N 22°52' E 113°33'3753.5
2014-Jul-14 12:33N 22°15' E 113°38'131512.0
2014-Jul-14 12:33N 22°13' E 113°24'699419619.3
2014-Jul-14 12:33N 31°22' E 121°30'656214704.0
2014-Jul-14 12:33N 23°04' E 113°29'65678754.1
2014-Jul-14 12:32N 31°21' E 121°31'707823.5
2014-Jul-14 12:32N 31°58' E 120°22'14216441.9
2014-Jul-14 12:31N 30°25' E 122°27'1472569.5
2014-Jul-14 12:28N 31°56' E 120°12'65017196.8
2014-Jul-14 12:25N 22°51' E 113°34'0212.9
2014-Jul-14 12:25N 22°51' E 113°33'1315.5
2014-Jul-14 11:33N 23°04' E 113°29'5013945.9
2014-Jul-14 11:33N 22°15' E 113°38'69125895.4
2014-Jul-14 11:31N 31°22' E 121°30'76106.7
2014-Jul-14 11:31N 31°15' E 121°32'6607895.7
2014-Jul-14 11:26N 22°51' E 113°34'0 2.2
2014-Jul-14 11:13N 22°51' E 113°33'0 0.7
2014-Jul-14 10:33N 22°51' E 113°34'664796339.5
2014-Jul-14 10:33N 31°22' E 121°30'69171028.0
2014-Jul-14 10:33N 22°15' E 113°38'5012951.3
2014-Jul-14 10:33N 23°04' E 113°29'9862259.0
2014-Jul-14 10:06N 39°04' E 117°51'9973590041.5
2014-Jul-14 10:06N 22°52' E 113°33'1323.9
2014-Jul-14 09:33N 23°04' E 113°29'501678.3
2014-Jul-14 09:31N 22°15' E 113°38'3766130.8
2014-Jul-14 09:31N 22°51' E 113°34'66461257.7
2014-Jul-14 09:31N 31°22' E 121°30'66315923.5
2014-Jul-14 09:28N 22°51' E 113°33'435729.9
2014-Jul-14 09:28N 22°09' E 113°37'688107627.4
2014-Jul-14 09:27N 30°25' E 122°27'69110458.2
2014-Jul-14 09:23N 22°09' E 113°30'42497.2
2014-Jul-14 09:18N 22°52' E 113°33'663883.5
2014-Jul-14 08:33N 31°22' E 121°30'691207160.6
2014-Jul-14 08:33N 22°15' E 113°38'620866.3
2014-Jul-14 08:33N 22°11' E 113°33'536013.7
2014-Jul-14 08:33N 23°04' E 113°29'544613.6
2014-Jul-14 08:32N 22°10' E 113°32'414879.5
2014-Jul-14 08:31N 22°51' E 113°34'65869720.5
2014-Jul-14 08:31N 30°25' E 122°27'65891148.2
2014-Jul-14 08:30N 22°52' E 113°33'0 5.2
2014-Jul-14 08:28N 22°51' E 113°33'6508323.6
2014-Jul-14 08:24N 31°56' E 120°12'641769.0
2014-Jul-14 07:34N 23°04' E 113°29'5025899.6
2014-Jul-14 07:33N 22°15' E 113°38'414505.3
2014-Jul-14 07:33N 22°11' E 113°39'68541779.9
2014-Jul-14 07:32N 30°25' E 122°27'751762.2
2014-Jul-14 07:30N 31°22' E 121°30'743394.9
2014-Jul-14 07:29N 31°56' E 120°12'6505953.4
2014-Jul-14 07:22N 22°51' E 113°34'41132.3
2014-Jul-14 07:03N 22°11' E 113°25'1938.4
2014-Jul-14 06:33N 22°14' E 113°46'71234.8
2014-Jul-14 06:33N 22°15' E 113°38'5016468.9
2014-Jul-14 06:33N 23°04' E 113°29'14680.3
2014-Jul-14 06:32N 22°51' E 113°34'65843898.0
2014-Jul-14 06:31N 30°25' E 122°27'753024.6
2014-Jul-14 06:29N 31°22' E 121°30'75181.0
2014-Jul-14 06:05N 31°56' E 120°12'6421242.9
2014-Jul-14 05:34N 23°05' E 113°26'649583723.1
2014-Jul-14 05:33N 31°58' E 120°22'6781220875.5
2014-Jul-14 05:33N 22°17' E 113°50'11964.5
2014-Jul-14 05:33N 22°15' E 113°38'112170778.8
2014-Jul-14 05:32N 35°07' E 129°03'44126904.3
2014-Jul-14 05:31N 31°22' E 121°30'558125546.8
2014-Jul-14 05:31N 23°07' E 116°40'54926000.8
2014-Jul-14 05:29N 30°42' E 122°24'66810102.2
2014-Jul-14 05:25N 22°51' E 113°34'6504439.5
2014-Jul-14 05:17N 31°56' E 120°12'679945.8
2014-Jul-14 04:33N 22°15' E 113°38'381551.9
2014-Jul-14 04:32N 22°52' E 113°33'1097438679.0
2014-Jul-14 04:32N 35°07' E 129°03'48133302.9
2014-Jul-14 04:31N 31°56' E 120°14'64718786.5
2014-Jul-14 04:29N 23°03' E 113°20'5231293.7
2014-Jul-14 04:29N 22°11' E 113°25'688165198.6
2014-Jul-14 04:29N 31°56' E 120°12'4453363.8
2014-Jul-14 04:21N 39°05' E 117°46'5573581.9
2014-Jul-14 04:11N 30°35' E 122°20'6851076.5
2014-Jul-14 03:33N 22°15' E 113°38'620753717.2
2014-Jul-14 03:26N 49°21' W 123°16'485987456.8
2014-Jul-14 03:23N 35°07' E 129°03'5864109.4
2014-Jul-14 03:14N 39°05' E 117°52'99744843.0
2014-Jul-14 03:13N 22°54' E 113°29'760.1
2014-Jul-14 03:06N 22°54' E 113°22'4277.6
2014-Jul-14 02:33N 22°15' E 113°38'1033464944.7
2014-Jul-14 02:33N 39°05' E 117°51'496893328.9
2014-Jul-14 02:33N 31°22' E 121°30'5375569091.6
2014-Jul-14 02:33N 49°19' W 123°22'485684043.5
2014-Jul-14 02:29N 35°07' E 129°04'48210157.3
2014-Jul-14 02:26N 31°56' E 120°12'1472049.0
2014-Jul-14 02:22N 30°25' E 122°27'437537.2
2014-Jul-14 01:33N 35°07' E 129°04'4851545735.8
2014-Jul-14 01:33N 49°17' W 123°29'619922314869.8
2014-Jul-14 01:33N 22°15' E 113°38'6797549.2
2014-Jul-14 01:27N 31°56' E 120°12'4685178.9
2014-Jul-14 01:22N 24°24' E 117°57'4617541.7
2014-Jul-14 01:18N 31°23' E 121°34'66742124.0
2014-Jul-14 01:17N 22°52' E 113°32'61648314.1
2014-Jul-14 00:33N 49°23' W 123°35'6192857409.2
2014-Jul-14 00:32N 22°15' E 113°38'27711093.4
2014-Jul-14 00:31N 24°24' E 118°05'43710480.4
2014-Jul-14 00:28N 30°38' E 122°20'6672276.8
2014-Jul-14 00:11N 22°54' E 113°22'6535268.8
2014-Jul-14 00:03N 31°56' E 120°12'6791330.1
2014-Jul-13 23:33N 22°15' E 113°38'2785183.0
2014-Jul-13 23:30N 24°23' E 118°06'28048057.0
2014-Jul-13 23:29N 22°14' E 113°35'101251.2
2014-Jul-13 23:29N 22°11' E 113°25'6931811.5
2014-Jul-13 23:06N 30°25' E 122°27'6821266.2
2014-Jul-13 22:33N 22°15' E 113°38'230.1
2014-Jul-13 22:30N 22°14' E 113°36'68448274.7
2014-Jul-13 22:29N 30°25' E 122°27'4301493.4
2014-Jul-13 22:11N 24°23' E 118°06'29021300.0
2014-Jul-13 22:11N 22°11' E 113°25'6881094.7
2014-Jul-13 21:33N 31°56' E 120°12'67976410.4
2014-Jul-13 21:32N 22°15' E 113°38'68240943.0
2014-Jul-13 21:31N 30°25' E 122°27'68421982.4
2014-Jul-13 21:30N 22°14' E 113°36'280201333.3
2014-Jul-13 21:29N 24°23' E 118°06'5869293471.0
2014-Jul-13 21:28N 49°25' W 123°39'620232032.5
2014-Jul-13 21:17N 22°11' E 113°25'4112446.7
2014-Jul-13 21:07N 26°08' E 119°34'299541.5
2014-Jul-13 20:33N 30°25' E 122°27'14918509.5
2014-Jul-13 20:33N 31°56' E 120°09'678221777.8
2014-Jul-13 20:33N 22°15' E 113°38'236.1
2014-Jul-13 20:30N 22°14' E 113°36'17645247.2
2014-Jul-13 20:29N 23°03' E 116°39'6006343196.2
2014-Jul-13 20:28N 49°25' W 123°38'61662466534.2
2014-Jul-13 20:28N 22°27' E 113°53'260934.0
2014-Jul-13 20:11N 24°23' E 118°06'278438.5
2014-Jul-13 19:33N 22°15' E 113°38'6779059.2
2014-Jul-13 19:29N 31°57' E 120°06'5393510916.2
2014-Jul-13 19:28N 49°25' W 123°38'61901310900.3
2014-Jul-13 19:28N 22°14' E 113°36'68425635.4
2014-Jul-13 19:26N 30°25' E 122°27'69310989.8
2014-Jul-13 19:23N 22°11' E 113°25'693838.8
2014-Jul-13 18:33N 30°25' E 122°27'682122829.8
2014-Jul-13 18:33N 22°15' E 113°38'2785000.9
2014-Jul-13 18:29N 24°23' E 118°06'46764631.5
2014-Jul-13 18:29N 31°59' E 119°60'5395498040.6
2014-Jul-13 18:28N 49°25' W 123°39'6184159022.6
2014-Jul-13 18:26N 22°18' E 113°40'15271.5
2014-Jul-13 18:23N 22°11' E 113°25'1215.1
2014-Jul-13 17:33N 22°15' E 113°38'6191210273.5
2014-Jul-13 17:32N 49°24' W 123°36'587224666.2
2014-Jul-13 17:17N 24°23' E 118°06'2901362.6
2014-Jul-13 17:05N 22°11' E 113°25'1223.3
2014-Jul-13 16:33N 22°15' E 113°38'6195353993.0
2014-Jul-13 16:32N 49°23' W 123°32'620840781.9
2014-Jul-13 16:23N 22°11' E 113°25'1215.1
2014-Jul-13 15:33N 22°15' E 113°38'1268.6
2014-Jul-13 15:23N 22°11' E 113°25'6853618.5
2014-Jul-13 15:11N 31°59' E 120°02'6771055.5
2014-Jul-13 14:33N 22°15' E 113°38'18114.3
2014-Jul-13 14:23N 22°27' E 113°53'66039607.3
2014-Jul-13 14:22N 31°58' E 120°06'678807.8
2014-Jul-13 13:32N 22°15' E 113°38'12127.3
2014-Jul-13 13:26N 22°11' E 113°25'68818901.0
2014-Jul-13 13:24N 31°57' E 120°10'4671923.7
2014-Jul-13 13:09N 24°22' E 118°08'467776.2
2014-Jul-13 12:33N 31°57' E 120°13'680144084.0
2014-Jul-13 12:33N 22°14' E 113°38'69127944.5
2014-Jul-13 12:31N 31°22' E 121°30'460552086.5
2014-Jul-13 12:31N 24°17' E 118°10'4331196.8
2014-Jul-13 12:09N 30°25' E 122°27'144240.6
2014-Jul-13 11:33N 31°58' E 120°17'683819945.7
2014-Jul-13 11:33N 22°14' E 113°38'691248705.9
2014-Jul-13 11:33N 31°22' E 121°30'601258.7
2014-Jul-13 11:30N 31°60' E 120°36'1212.8
2014-Jul-13 10:33N 31°60' E 120°22'687618106.4
2014-Jul-13 10:33N 22°14' E 113°38'691310882.4
2014-Jul-13 10:33N 31°22' E 121°30'498895629.6
2014-Jul-13 10:33N 39°05' E 117°46'443398275.9
2014-Jul-13 10:33N 32°02' E 120°28'7012974.1
2014-Jul-13 10:19N 22°11' E 113°25'700921.3
2014-Jul-13 09:33N 32°02' E 120°26'691828898.4
2014-Jul-13 09:33N 22°14' E 113°38'691276339.9
2014-Jul-13 09:33N 31°22' E 121°30'48914931.9
2014-Jul-13 09:31N 23°52' E 117°52'5039014.8
2014-Jul-13 09:28N 31°58' E 120°20'1111.9
2014-Jul-13 08:33N 32°02' E 120°32'6931248237.0
2014-Jul-13 08:33N 22°14' E 113°38'24698260.4
2014-Jul-13 08:33N 23°46' E 117°45'49830882.1
2014-Jul-13 08:32N 31°22' E 121°30'7012796.0
2014-Jul-13 08:17N 22°11' E 113°25'6935788.1
2014-Jul-13 08:10N 30°25' E 122°27'479777.4
2014-Jul-13 07:33N 23°41' E 117°39'504106796.8
2014-Jul-13 07:33N 31°22' E 121°30'691497411.8
2014-Jul-13 07:33N 22°14' E 113°38'696125192.4
2014-Jul-13 07:32N 32°00' E 120°39'1331325.2
2014-Jul-13 07:26N 30°25' E 122°27'6851981.9
2014-Jul-13 07:06N 22°13' E 113°35'3 5.6
2014-Jul-13 06:33N 22°14' E 113°38'69173132.5
2014-Jul-13 06:33N 31°22' E 121°30'49699292.7
2014-Jul-13 06:33N 39°04' E 117°48'447160914.9
2014-Jul-13 06:32N 32°01' E 120°46'70215229.6
2014-Jul-13 06:30N 22°13' E 113°35'694731.1
2014-Jul-13 05:33N 31°22' E 121°30'69167202.9
2014-Jul-13 05:32N 22°14' E 113°38'68211219.1
2014-Jul-13 05:28N 30°25' E 122°27'6858538.0
2014-Jul-13 05:24N 22°13' E 113°35'3 3.6
2014-Jul-13 04:33N 22°14' E 113°38'68230712.4
2014-Jul-13 04:32N 30°25' E 122°27'537161102.9
2014-Jul-13 04:32N 23°07' E 116°39'17790911.9
2014-Jul-13 04:32N 22°54' E 113°28'6647427.2
2014-Jul-13 04:26N 31°22' E 121°30'69414686.0
2014-Jul-13 04:24N 22°13' E 113°35'10363804.0
2014-Jul-13 04:07N 39°05' E 117°51'50419705.8
2014-Jul-13 04:06N 31°14' E 121°30'69129.0
2014-Jul-13 03:33N 30°25' E 122°27'682122848.8
2014-Jul-13 03:33N 22°14' E 113°38'68732119.7
2014-Jul-13 03:32N 31°15' E 121°32'73416.2
2014-Jul-13 03:32N 31°22' E 121°30'6945105.5
2014-Jul-13 03:24N 22°13' E 113°35'103610357.5
2014-Jul-13 03:18N 39°05' E 117°51'998299278.8
2014-Jul-13 03:17N 22°54' E 113°22'112748.6
2014-Jul-13 03:17N 22°51' E 113°33'658904.6
2014-Jul-13 02:33N 30°25' E 122°27'6822456960.3
2014-Jul-13 02:33N 22°14' E 113°38'69160646.5
2014-Jul-13 02:33N 31°22' E 121°30'69154050.9
2014-Jul-13 02:32N 22°16' E 113°36'38386.2
2014-Jul-13 02:26N 22°54' E 113°30'6642668.9
2014-Jul-13 02:11N 31°21' E 121°32'6911100.2
2014-Jul-13 01:33N 22°14' E 113°38'69155252.8
2014-Jul-13 01:33N 31°21' E 121°30'5366878141.7
2014-Jul-13 01:32N 49°24' W 123°30'5366666178.6
2014-Jul-13 01:32N 31°22' E 121°30'49615659.0
2014-Jul-13 01:30N 39°04' E 117°49'5679758.1
2014-Jul-13 01:26N 30°25' E 122°27'7686.0
2014-Jul-13 00:33N 31°23' E 121°30'7654605.0
2014-Jul-13 00:33N 30°25' E 122°27'7529933.1
2014-Jul-13 00:33N 31°22' E 121°30'69180209.9
2014-Jul-13 00:33N 22°14' E 113°38'1771985.4
2014-Jul-13 00:27N 23°11' E 116°40'177195.6
2014-Jul-12 23:33N 22°14' E 113°38'694208068.0
2014-Jul-12 23:33N 31°26' E 121°29'4122.4
2014-Jul-12 23:31N 31°22' E 121°30'756735.8
2014-Jul-12 23:30N 30°25' E 122°27'56710688.8
2014-Jul-12 23:27N 39°04' E 117°49'95519532.6
2014-Jul-12 23:24N 23°11' E 116°40'177208.8
2014-Jul-12 22:33N 22°14' E 113°38'69952415.3
2014-Jul-12 22:32N 32°08' E 120°33'14115421.8
2014-Jul-12 22:32N 30°25' E 122°27'769067.2
2014-Jul-12 22:31N 31°23' E 121°30'55523523.6
2014-Jul-12 22:30N 23°11' E 116°40'18914494.1
2014-Jul-12 22:29N 22°11' E 113°25'41149.6
2014-Jul-12 22:13N 22°51' E 113°34'3825662.0
2014-Jul-12 22:09N 26°08' E 119°34'38213751.2
2014-Jul-12 22:07N 22°51' E 113°34'6581174.8
2014-Jul-12 21:33N 30°25' E 122°27'693207886.2
2014-Jul-12 21:33N 22°11' E 113°25'121627.2
2014-Jul-12 21:33N 22°14' E 113°38'691828817.9
2014-Jul-12 21:33N 31°19' E 121°33'5543637.7
2014-Jul-12 21:24N 23°11' E 116°40'237955.4
2014-Jul-12 21:09N 26°08' E 119°34'400680.9
2014-Jul-12 20:33N 22°14' E 113°38'68324327.2
2014-Jul-12 20:32N 30°25' E 122°27'16417922.2
2014-Jul-12 20:31N 32°06' E 119°55'56340506.8
2014-Jul-12 20:30N 23°11' E 116°40'1723927.0
2014-Jul-12 20:28N 22°51' E 113°34'414575.8
2014-Jul-12 20:27N 22°11' E 113°25'1213.6
2014-Jul-12 19:33N 22°14' E 113°38'123379.6
2014-Jul-12 19:33N 22°11' E 113°25'686617770.0
2014-Jul-12 19:33N 32°02' E 119°57'1611028.3
2014-Jul-12 19:24N 30°25' E 122°27'6584895.7
2014-Jul-12 19:16N 22°51' E 113°34'658919.8
2014-Jul-12 18:33N 30°25' E 122°27'6832457066.4
2014-Jul-12 18:33N 22°14' E 113°38'12240.0
2014-Jul-12 18:30N 22°11' E 113°25'68511476.4
2014-Jul-12 18:26N 31°58' E 120°02'75419.1
2014-Jul-12 18:15N 31°29' E 121°23'6658585.8
2014-Jul-12 18:11N 22°51' E 113°34'6581051.7
2014-Jul-12 17:33N 30°25' E 122°27'6831228533.2
2014-Jul-12 17:33N 22°14' E 113°38'677406416.3
2014-Jul-12 17:33N 31°58' E 120°05'153154.0
2014-Jul-12 16:33N 30°25' E 122°27'683117001.7
2014-Jul-12 16:33N 22°14' E 113°38'1772942.2
2014-Jul-12 16:29N 23°10' E 116°40'5571471.4
2014-Jul-12 16:07N 31°57' E 120°08'150270.0
2014-Jul-12 15:33N 30°25' E 122°27'683409508.4
2014-Jul-12 15:33N 22°14' E 113°38'67844369.9
2014-Jul-12 15:32N 31°56' E 120°09'5534226.4
2014-Jul-12 15:24N 23°13' E 116°48'6 7.1
2014-Jul-12 14:33N 23°18' E 116°46'185667353.3
2014-Jul-12 14:33N 22°14' E 113°38'  
Track history (hours):
 
Tides and Currents Weather Stations Pressure Air Temp Water Temp Dewpoint Dewpoint Depression Visibility Wind Speed Wind Dir Waves Ship Positions

Victoria

Last reported at 2014-Jul-22 14:33 UTC. Time now 2014-Jul-22 15:00 UTC.
Position N 23°04' E 113°29'.

Length 19 m.

Type: Pleasure craft. MMSI: 211150030.

Date/timePositionNaut miles runAvg speedWind from/ knotsBaromVisibWave heightAir tempDewpointWater temp
2014-Jul-22 14:33N 23°04' E 113°29'63819302.0
2014-Jul-22 14:31N 31°58' E 120°03'6782561.9
2014-Jul-22 14:15N 22°14' E 113°35'680969.2
2014-Jul-22 13:33N 31°57' E 120°07'640575602.5
2014-Jul-22 13:33N 23°04' E 113°29'6388769.6
2014-Jul-22 13:29N 32°01' E 119°58'67926846.1
2014-Jul-22 13:27N 22°14' E 113°35'681757.2
2014-Jul-22 12:33N 31°57' E 120°12'641256511.2
2014-Jul-22 12:33N 23°04' E 113°29'6399664.0
2014-Jul-22 12:29N 32°02' E 119°58'553.4
2014-Jul-22 12:24N 31°58' E 120°02'63819128.7
2014-Jul-22 12:22N 23°04' E 113°30'507479.6
2014-Jul-22 12:21N 22°14' E 113°35'683858.2
2014-Jul-22 11:33N 31°57' E 120°16'151692.9
2014-Jul-22 11:33N 32°00' E 119°59'63854691.4
2014-Jul-22 11:32N 23°04' E 113°29'63910092.0
2014-Jul-22 11:28N 31°58' E 120°06'67933495.0
2014-Jul-22 11:27N 22°14' E 113°35'501158.1
2014-Jul-22 11:25N 23°04' E 113°30'9856043.8
2014-Jul-22 11:15N 39°05' E 117°44'444640.4
2014-Jul-22 10:33N 32°00' E 120°21'441397208.7
2014-Jul-22 10:33N 39°04' E 117°50'10331859399.2
2014-Jul-22 10:33N 22°14' E 113°35'4958398.1
2014-Jul-22 10:33N 23°02' E 113°24'642577867.9
2014-Jul-22 10:33N 31°59' E 120°02'63879180.4
2014-Jul-22 10:33N 23°04' E 113°29'6415456.3
2014-Jul-22 10:26N 31°57' E 120°12'64122849.4
2014-Jul-22 10:24N 23°04' E 113°29'643766.3
2014-Jul-22 09:34N 31°57' E 120°16'443227776.2
2014-Jul-22 09:33N 39°04' E 117°51'986443533.2
2014-Jul-22 09:33N 23°04' E 113°29'65226064.1
2014-Jul-22 09:32N 32°01' E 120°25'175688.7
2014-Jul-22 09:32N 31°58' E 120°05'7910525.1
2014-Jul-22 09:31N 31°21' E 121°27'65410708.2
2014-Jul-22 09:27N 23°04' E 113°29'0 1.7
2014-Jul-22 09:11N 23°04' E 113°30'501533.7
2014-Jul-22 09:09N 22°14' E 113°35'10341737.3
2014-Jul-22 08:33N 39°04' E 117°52'441176210.3
2014-Jul-22 08:33N 32°02' E 120°29'1816229.2
2014-Jul-22 08:33N 31°57' E 120°09'7627262.2
2014-Jul-22 08:33N 31°21' E 121°27'69247491.8
2014-Jul-22 08:33N 31°59' E 120°20'648129502.5
2014-Jul-22 08:33N 23°04' E 113°29'153.3
2014-Jul-22 08:32N 23°04' E 113°30'50569.7
2014-Jul-22 08:27N 22°14' E 113°35'501277.0
2014-Jul-22 08:24N 23°04' E 113°29'9861157.7
2014-Jul-22 07:33N 39°04' E 117°49'9861774130.6
2014-Jul-22 07:33N 23°04' E 113°29'6512342417.1
2014-Jul-22 07:33N 32°01' E 120°24'98116.2
2014-Jul-22 07:33N 32°01' E 120°35'65632812.0
2014-Jul-22 07:32N 23°04' E 113°30'654112149.8
2014-Jul-22 07:32N 31°21' E 121°27'6918429.1
2014-Jul-22 07:27N 22°14' E 113°35'501286.2
2014-Jul-22 07:24N 23°04' E 113°29'654768.4
2014-Jul-22 06:33N 32°02' E 120°29'694131433.8
2014-Jul-22 06:33N 22°14' E 113°35'507839.1
2014-Jul-22 06:33N 23°04' E 113°29'161.3
2014-Jul-22 06:32N 23°04' E 113°30'98553753.6
2014-Jul-22 06:31N 39°05' E 117°44'44811615.0
2014-Jul-22 06:29N 32°00' E 120°40'6071445.8
2014-Jul-22 06:03N 23°04' E 115°20'6051210.0
2014-Jul-22 05:33N 32°01' E 120°34'107476.3
2014-Jul-22 05:33N 32°01' E 120°46'446321332.4
2014-Jul-22 05:33N 39°03' E 117°49'1032218635.9
2014-Jul-22 05:33N 22°14' E 113°35'5013869.1
2014-Jul-22 05:33N 23°04' E 113°29'4139.8
2014-Jul-22 05:31N 23°04' E 113°25'431.3
2014-Jul-22 05:23N 23°04' E 113°30'1 0.8
2014-Jul-22 04:33N 23°04' E 113°29'9863548895.8
2014-Jul-22 04:33N 39°04' E 117°52'1033132869.1
2014-Jul-22 04:33N 22°14' E 113°35'69762714.3
2014-Jul-22 04:32N 32°00' E 120°39'11140.9
2014-Jul-22 04:28N 31°58' E 120°51'662596126.4
2014-Jul-22 04:28N 23°04' E 113°30'0 8.5
2014-Jul-22 04:24N 23°04' E 113°29'6382990.6
2014-Jul-22 04:12N 31°58' E 120°03'440690.8
2014-Jul-22 03:33N 39°04' E 117°48'1033123965.8
2014-Jul-22 03:33N 22°14' E 113°35'5018032.0
2014-Jul-22 03:33N 23°04' E 113°29'6395961.2
2014-Jul-22 03:26N 31°58' E 120°06'34254.1
2014-Jul-22 03:18N 32°01' E 120°46'6628135.0
2014-Jul-22 03:13N 23°04' E 113°30'028.0
2014-Jul-22 03:12N 23°04' E 113°29'63819462.9
2014-Jul-22 03:10N 31°58' E 120°03'6411031.4
2014-Jul-22 02:33N 23°03' E 113°25'643579074.9
2014-Jul-22 02:33N 31°57' E 120°10'6401152834.1
2014-Jul-22 02:33N 23°04' E 113°29'5016394.7
2014-Jul-22 02:33N 22°14' E 113°35'51793.0
2014-Jul-22 02:29N 23°03' E 113°18'10245.4
2014-Jul-22 02:27N 23°04' E 113°29'0 0.1
2014-Jul-22 01:33N 23°04' E 113°29'642177825.1
2014-Jul-22 01:33N 31°57' E 120°14'643289227.8
2014-Jul-22 01:33N 23°05' E 113°27'5115312.3
2014-Jul-22 01:33N 22°14' E 113°35'69111200.9
2014-Jul-22 01:29N 31°21' E 121°27'6542239.4
2014-Jul-22 01:12N 23°04' E 113°29'6451009.1
2014-Jul-22 00:33N 31°58' E 120°18'645211150.1
2014-Jul-22 00:33N 23°04' E 113°28'1 7.7
2014-Jul-22 00:27N 23°04' E 113°29'1 3.3
2014-Jul-22 00:16N 23°04' E 113°30'50396.5
2014-Jul-22 00:09N 22°14' E 113°35'4983.6
2014-Jul-21 23:33N 23°02' E 113°22'49217.1
2014-Jul-21 23:20N 22°14' E 113°35'50586.6
2014-Jul-21 23:15N 23°04' E 113°29'6567067.2
2014-Jul-21 23:09N 31°47' E 120°55'2948.1
2014-Jul-21 22:33N 31°58' E 120°25'292634.0
2014-Jul-21 22:33N 31°47' E 120°55'69219455.7
2014-Jul-21 22:31N 22°16' E 113°37'49729.7
2014-Jul-21 22:27N 23°04' E 113°29'1 0.6
2014-Jul-21 21:32N 23°04' E 113°30'65529869.3
2014-Jul-21 21:31N 31°47' E 120°55'6569634.0
2014-Jul-21 21:27N 23°04' E 113°29'656670.5
2014-Jul-21 20:28N 31°47' E 120°55'6763997.4
2014-Jul-21 20:18N 22°24' E 113°54'676173888.2
2014-Jul-21 20:18N 31°47' E 120°55'6562622.7
2014-Jul-21 20:03N 23°04' E 113°29'6561326.1
2014-Jul-21 19:33N 31°47' E 120°55'6566211.6
2014-Jul-21 19:27N 23°04' E 113°29'38341.6
2014-Jul-21 19:20N 22°30' E 113°48'675816.9
2014-Jul-21 18:30N 31°47' E 120°55'65610632.5
2014-Jul-21 18:27N 23°04' E 113°29'6595776.1
2014-Jul-21 18:20N 31°25' E 121°31'4 5.3
2014-Jul-21 17:32N 31°21' E 121°32'408503.7
2014-Jul-21 17:32N 31°47' E 120°55'6568056.1
2014-Jul-21 17:27N 23°04' E 113°29'4633231.8
2014-Jul-21 17:27N 22°24' E 113°54'33126.0
2014-Jul-21 17:11N 22°51' E 113°34'6641054.7
2014-Jul-21 16:33N 31°47' E 120°55'656147517.6
2014-Jul-21 16:33N 23°04' E 113°30'13200.7
2014-Jul-21 16:29N 22°51' E 113°34'6584969.6
2014-Jul-21 16:21N 31°15' E 121°30'6516183.9
2014-Jul-21 16:15N 23°04' E 113°29'647849.1
2014-Jul-21 15:29N 31°11' E 121°28'45898.7
2014-Jul-21 15:26N 31°47' E 120°55'65617229.6
2014-Jul-21 15:24N 23°04' E 113°29'141092.1
2014-Jul-21 15:23N 22°51' E 113°34'1213.8
2014-Jul-21 14:30N 23°03' E 113°30'12327.5
2014-Jul-21 14:28N 22°51' E 113°34'66429505.0
2014-Jul-21 14:27N 31°47' E 120°55'6562817.1
2014-Jul-21 14:13N 23°04' E 113°29'913.6
2014-Jul-21 13:32N 22°55' E 113°30'66270135.4
2014-Jul-21 13:32N 31°47' E 120°55'6563940.9
2014-Jul-21 13:22N 23°04' E 113°29'14411.5
2014-Jul-21 13:20N 22°51' E 113°34'911.7
2014-Jul-21 12:32N 22°54' E 113°24'66648949.6
2014-Jul-21 12:32N 31°47' E 120°55'6561810.2
2014-Jul-21 12:10N 23°04' E 113°29'9118.8
2014-Jul-21 12:05N 23°03' E 113°19'4 7.5
2014-Jul-21 11:32N 23°02' E 113°23'6619706.9
2014-Jul-21 11:28N 31°47' E 120°55'6566163.1
2014-Jul-21 11:22N 23°04' E 113°29'648804.1
2014-Jul-21 10:34N 31°58' E 120°23'445534368.7
2014-Jul-21 10:33N 39°05' E 117°46'98653800.2
2014-Jul-21 10:32N 23°03' E 113°30'361600.5
2014-Jul-21 10:31N 22°29' E 113°44'67716349.1
2014-Jul-21 10:29N 31°47' E 120°55'40693.7
2014-Jul-21 10:25N 31°55' E 120°10'63912044.6
2014-Jul-21 10:22N 23°04' E 113°29'4555.1
2014-Jul-21 09:33N 22°22' E 113°44'68348205.8
2014-Jul-21 09:32N 31°47' E 120°55'4020542.0
2014-Jul-21 09:32N 31°55' E 120°09'64919961.6
2014-Jul-21 09:30N 22°55' E 113°26'755.0
2014-Jul-21 09:22N 22°54' E 113°34'64829893.7
2014-Jul-21 09:21N 31°56' E 120°14'6423468.3
2014-Jul-21 09:10N 23°04' E 113°29'6391038.6
2014-Jul-21 08:33N 31°55' E 120°10'6768246.2
2014-Jul-21 08:28N 22°15' E 113°41'39737.9
2014-Jul-21 08:25N 22°52' E 113°32'6642398.5
2014-Jul-21 08:08N 31°47' E 120°55'6971196.5
2014-Jul-21 07:33N 22°10' E 113°36'56897.3
2014-Jul-21 07:30N 23°05' E 113°27'10921162.7
2014-Jul-21 06:33N 35°07' E 129°03'1131239536.4
2014-Jul-21 06:33N 22°09' E 113°28'541608.3
2014-Jul-21 06:31N 23°02' E 113°22'3 3.0
2014-Jul-21 05:33N 23°03' E 113°25'65943143.8
2014-Jul-21 05:32N 31°60' E 120°37'676687.5
2014-Jul-21 04:33N 22°27' E 113°53'4523238.3
2014-Jul-21 04:33N 23°05' E 113°26'65547172.6
2014-Jul-21 04:33N 32°01' E 120°31'44522876.8
2014-Jul-21 04:31N 39°05' E 117°44'4651197.7
2014-Jul-21 04:08N 31°47' E 120°55'3051.7
2014-Jul-21 03:33N 32°00' E 120°24'651334876.3
2014-Jul-21 03:33N 23°05' E 113°26'98530048.7
2014-Jul-21 03:31N 39°05' E 117°44'102220910.7
2014-Jul-21 03:28N 22°22' E 113°55'5054.1
2014-Jul-21 02:33N 23°02' E 113°23'43059.2
2014-Jul-21 02:33N 23°05' E 113°26'64643849.9
2014-Jul-21 02:32N 31°57' E 120°18'4431593424.5
2014-Jul-21 02:32N 39°03' E 117°51'985995.8
2014-Jul-21 01:33N 23°04' E 113°29'985394004.7
2014-Jul-21 01:33N 39°04' E 117°48'98530556.4
2014-Jul-21 01:31N 23°05' E 113°26'58612.2
2014-Jul-21 01:25N 22°20' E 114°05'49678.4
2014-Jul-21 01:21N 22°55' E 113°28'6723168.0
2014-Jul-21 01:08N 30°45' E 122°25'6661148.9
2014-Jul-21 00:33N 23°05' E 113°26'35411.9
2014-Jul-21 00:33N 23°04' E 113°29'149784.7
2014-Jul-21 00:33N 22°51' E 113°34'1615.6
2014-Jul-20 23:33N 23°05' E 113°26'35415.7
2014-Jul-20 23:33N 23°04' E 113°29'504317.2
2014-Jul-20 23:32N 22°14' E 113°36'5252.8
2014-Jul-20 22:33N 23°05' E 113°26'4638.7
2014-Jul-20 22:33N 23°04' E 113°30'10901093.5
2014-Jul-20 21:33N 35°07' E 129°03'1092392963.2
2014-Jul-20 21:33N 23°05' E 113°26'4326.9
2014-Jul-20 21:32N 23°04' E 113°30'6563538.1
2014-Jul-20 21:21N 31°46' E 120°56'656817.4
2014-Jul-20 20:33N 23°05' E 113°26'46541.9
2014-Jul-20 20:33N 23°04' E 113°30'65620170.5
2014-Jul-20 20:31N 31°46' E 120°56'656678.5
2014-Jul-20 19:33N 23°05' E 113°26'4688.2
2014-Jul-20 19:33N 23°04' E 113°30'6563586.5
2014-Jul-20 19:22N 31°46' E 120°56'656814.6
2014-Jul-20 18:33N 23°05' E 113°26'413083.8
2014-Jul-20 18:33N 23°04' E 113°30'6563352.2
2014-Jul-20 18:22N 31°46' E 120°56'33119962.6
2014-Jul-20 18:22N 31°59' E 120°20'648805.5
2014-Jul-20 17:33N 23°05' E 113°26'65131670.2
2014-Jul-20 17:32N 32°01' E 120°23'31306.1
2014-Jul-20 17:26N 31°46' E 120°56'656748.5
2014-Jul-20 16:33N 23°05' E 113°26'31046.5
2014-Jul-20 16:33N 23°04' E 113°29'6541176817.9
2014-Jul-20 16:33N 32°02' E 120°28'654657.5
2014-Jul-20 15:34N 23°04' E 113°29'3405.9
2014-Jul-20 15:33N 23°05' E 113°26'65698472.0
2014-Jul-20 15:33N 32°01' E 120°33'24100.7
2014-Jul-20 15:18N 31°46' E 120°56'471125.6
2014-Jul-20 15:16N 31°58' E 120°03'4 6.1
2014-Jul-20 14:33N 31°57' E 120°08'640575712.6
2014-Jul-20 14:33N 23°04' E 113°29'3412.7
2014-Jul-20 14:33N 23°05' E 113°26'65869719.3
2014-Jul-20 14:32N 32°00' E 120°39'20617.8
2014-Jul-20 14:30N 31°46' E 120°56'3638.2
2014-Jul-20 13:33N 31°57' E 120°15'643144773.7
2014-Jul-20 13:33N 23°05' E 113°26'3152.6
2014-Jul-20 13:32N 23°04' E 113°29'6567024.5
2014-Jul-20 13:26N 31°46' E 120°56'3236.1
2014-Jul-20 12:33N 31°60' E 120°21'649155763.1
2014-Jul-20 12:33N 23°05' E 113°26'3383.4
2014-Jul-20 12:32N 23°04' E 113°29'65622693.0
2014-Jul-20 12:31N 31°46' E 120°56'656689.3
2014-Jul-20 11:33N 23°05' E 113°26'6542353315.2
2014-Jul-20 11:33N 32°02' E 120°27'653391863.1
2014-Jul-20 11:33N 23°04' E 113°29'6561361.2
2014-Jul-20 11:04N 31°46' E 120°56'6561271.8
2014-Jul-20 10:33N 23°05' E 113°26'31213.1
2014-Jul-20 10:33N 23°04' E 113°29'656472274.8
2014-Jul-20 10:33N 32°01' E 120°34'66424913.9
2014-Jul-20 10:32N 22°53' E 113°31'6644847.2
2014-Jul-20 10:23N 31°46' E 120°56'656780.0
2014-Jul-20 09:33N 23°04' E 113°29'3210.3
2014-Jul-20 09:32N 23°05' E 113°26'9856740.4
2014-Jul-20 09:23N 39°05' E 117°44'4662063.1
2014-Jul-20 09:10N 31°46' E 120°56'463766.0
2014-Jul-20 08:33N 39°04' E 117°51'9853547619.5
2014-Jul-20 08:33N 23°05' E 113°26'31092.6
2014-Jul-20 08:33N 23°04' E 113°29'6561518.1
2014-Jul-20 08:07N 31°46' E 120°56'464820.5
2014-Jul-20 07:33N 39°04' E 117°49'9841181310.4
2014-Jul-20 07:33N 23°05' E 113°27'3197.1
2014-Jul-20 07:33N 23°04' E 113°29'985999.2
2014-Jul-20 06:33N 39°05' E 117°44'9851772378.1
2014-Jul-20 06:33N 23°05' E 113°27'3331.2
2014-Jul-20 06:33N 23°04' E 113°29'58336.4
2014-Jul-20 06:23N 22°12' E 113°55'10321259.3
2014-Jul-20 05:33N 39°04' E 117°47'9841771974.0
2014-Jul-20 05:33N 23°05' E 113°27'31186.1
2014-Jul-20 05:33N 23°04' E 113°29'555042.8
2014-Jul-20 05:33N 22°13' E 113°49'69420992.6
2014-Jul-20 05:31N 32°01' E 120°43'446467.7
2014-Jul-20 04:33N 39°04' E 117°51'9851182223.3
2014-Jul-20 04:33N 23°05' E 113°27'663398016.2
2014-Jul-20 04:33N 32°00' E 120°49'6631193530.6
2014-Jul-20 04:33N 23°04' E 113°29'66060965.1
2014-Jul-20 04:33N 30°42' E 122°23'993858.1
2014-Jul-20 04:31N 31°46' E 120°56'465484.1
2014-Jul-20 03:33N 39°05' E 117°46'9851181546.7
2014-Jul-20 03:33N 23°05' E 113°27'31184.8
2014-Jul-20 03:33N 23°04' E 113°29'3 2.6
2014-Jul-20 02:33N 23°05' E 113°27'3315.9
2014-Jul-20 02:33N 23°04' E 113°29'541087.6
2014-Jul-20 02:30N 22°11' E 113°26'41336.7
2014-Jul-20 02:23N 22°51' E 113°34'7106.2
2014-Jul-20 02:19N 22°55' E 113°27'1238.9
2014-Jul-20 02:18N 22°55' E 113°26'9961330.1
2014-Jul-20 01:33N 39°04' E 117°51'9861774927.5
2014-Jul-20 01:33N 23°04' E 113°29'3236.4
2014-Jul-20 01:33N 23°05' E 113°26'16132.0
2014-Jul-20 01:26N 22°51' E 113°34'350.3
2014-Jul-20 01:23N 22°53' E 113°31'355.0
2014-Jul-20 01:20N 22°51' E 113°34'177758.7
2014-Jul-20 01:06N 23°07' E 116°46'181336.7
2014-Jul-20 00:33N 23°04' E 113°29'39478.3
2014-Jul-20 00:33N 23°05' E 113°27'162020.9
2014-Jul-20 00:33N 22°51' E 113°34'421154.1
2014-Jul-20 00:31N 22°10' E 113°27'1971006.6
2014-Jul-20 00:19N 23°11' E 116°51'188247.1
2014-Jul-19 23:33N 23°05' E 113°26'310336.1
2014-Jul-19 23:33N 23°04' E 113°29'189113566.7
2014-Jul-19 23:33N 23°14' E 116°55'198102007.4
2014-Jul-19 23:33N 22°10' E 113°31'451718.5
2014-Jul-19 23:32N 22°55' E 113°26'1111.2
2014-Jul-19 22:33N 23°05' E 113°26'5614295.7
2014-Jul-19 22:33N 22°10' E 113°31'5432419.7
2014-Jul-19 22:33N 23°04' E 113°29'6561442.2
2014-Jul-19 22:06N 31°46' E 120°56'6561215.1
2014-Jul-19 21:33N 23°04' E 113°29'0641.8
2014-Jul-19 21:33N 23°04' E 113°29'5414963.5
2014-Jul-19 21:33N 22°10' E 113°31'5454.3
2014-Jul-19 20:33N 23°04' E 113°29'5412159.2
2014-Jul-19 20:33N 22°10' E 113°31'5454.0
2014-Jul-19 19:33N 23°04' E 113°29'54546.4
2014-Jul-19 19:27N 22°10' E 113°31'5460.3
2014-Jul-19 18:33N 23°04' E 113°29'5411440.1
2014-Jul-19 18:33N 22°10' E 113°31'6 5.6
2014-Jul-19 17:33N 22°10' E 113°37'543626.0
2014-Jul-19 17:32N 23°04' E 113°29'0 0.0
2014-Jul-19 16:33N 23°04' E 113°29'5231419.7
2014-Jul-19 16:33N 22°14' E 113°44'2271364.8
2014-Jul-19 16:23N 23°38' E 117°34'221265.0
2014-Jul-19 15:33N 22°18' E 113°50'5016383.2
2014-Jul-19 15:33N 23°04' E 113°29'23217776.2
2014-Jul-19 15:32N 23°41' E 117°39'5311587.5
2014-Jul-19 15:12N 19°46' E 109°07'537826.3
2014-Jul-19 14:33N 23°46' E 117°45'2373717.1
2014-Jul-19 14:29N 22°59' E 113°31'243260.1
2014-Jul-19 13:33N 23°51' E 117°50'24413728.0
2014-Jul-19 13:32N 22°52' E 113°32'419.4
2014-Jul-19 13:21N 22°54' E 113°29'3 3.4
2014-Jul-19 12:32N 22°55' E 113°26'2555223.5
2014-Jul-19 12:29N 23°57' E 117°56'50113154.3
2014-Jul-19 12:27N 32°00' E 120°24'691165765.3
2014-Jul-19 12:27N 22°13' E 113°35'288787.3
2014-Jul-19 12:05N 19°44' E 109°11'288538.2
2014-Jul-19 11:33N 22°13' E 113°35'28819188.0
2014-Jul-19 11:32N 19°44' E 109°11'9588733.4
2014-Jul-19 11:25N 32°02' E 120°30'664766.6
2014-Jul-19 10:33N 22°51' E 113°34'66629955.4
2014-Jul-19 10:32N 32°01' E 120°36'66514086.2
2014-Jul-19 10:29N 22°54' E 113°30'99614689.2
2014-Jul-19 10:25N 39°05' E 117°44'103414159.3
2014-Jul-19 10:21N 22°13' E 113°35'68330734.9
2014-Jul-19 10:19N 31°10' E 121°28'509664.1
2014-Jul-19 09:33N 39°05' E 117°46'89249409.3
2014-Jul-19 09:32N 24°13' E 118°12'45517810.5
2014-Jul-19 09:31N 31°13' E 121°30'312.3
2014-Jul-19 09:15N 31°10' E 121°28'508729.8
2014-Jul-19 08:33N 39°05' E 117°45'50616267.5
2014-Jul-19 08:31N 31°13' E 121°30'3266.1
2014-Jul-19 08:31N 31°15' E 121°32'4501642.3
2014-Jul-19 08:14N 24°18' E 118°20'8861300.2
2014-Jul-19 07:33N 39°04' E 117°47'5031812401.6
2014-Jul-19 07:33N 31°16' E 121°33'69095600.8
2014-Jul-19 07:33N 22°13' E 113°35'29625949.3
2014-Jul-19 07:32N 24°21' E 118°25'45017815.9
2014-Jul-19 07:31N 31°19' E 121°33'445465.0
2014-Jul-19 06:33N 24°25' E 118°31'44569704.3
2014-Jul-19 06:33N 31°22' E 121°28'2596.5
2014-Jul-19 06:33N 31°22' E 121°30'332.6
2014-Jul-19 06:26N 31°20' E 121°33'514.9
2014-Jul-19 06:05N 31°25' E 121°32'1 2.5
2014-Jul-19 05:33N 31°24' E 121°31'496595674.5
2014-Jul-19 05:33N 39°05' E 117°45'986208845.2
2014-Jul-19 05:33N 23°03' E 113°30'65828539.6
2014-Jul-19 05:31N 31°24' E 121°31'238.1
2014-Jul-19 05:28N 31°22' E 121°30'6997172.2
2014-Jul-19 05:23N 22°09' E 113°30'10391270.8
2014-Jul-19 04:34N 39°05' E 117°45'49144201.2
2014-Jul-19 04:33N 31°28' E 121°26'6848.3
2014-Jul-19 04:32N 31°24' E 121°32'541.5
2014-Jul-19 04:25N 31°27' E 121°27'676788.1
2014-Jul-19 03:33N 22°26' E 113°53'101950246.9
2014-Jul-19 03:32N 39°05' E 117°45'4907979.6
2014-Jul-19 03:28N 31°29' E 121°25'650.1
2014-Jul-19 03:22N 31°32' E 121°20'662821.6
2014-Jul-19 02:33N 23°03' E 113°25'662595746.5
2014-Jul-19 02:33N 31°33' E 121°20'48275454.2
2014-Jul-19 02:33N 39°04' E 117°51'4934985.2
2014-Jul-19 02:27N 31°25' E 121°32'3830.9
2014-Jul-19 01:14N 31°46' E 120°56'42453.3
2014-Jul-19 01:09N 31°19' E 121°34'4 5.9
2014-Jul-19 00:27N 31°15' E 121°32'87822.4
2014-Jul-19 00:20N 31°57' E 120°03'637729.7
2014-Jul-18 23:28N 23°04' E 113°30'1111.8
2014-Jul-18 22:33N 22°53' E 113°30'11 9.8
2014-Jul-18 21:28N 23°04' E 113°30'65513331.3
2014-Jul-18 21:25N 31°46' E 120°56'655569.4
2014-Jul-18 20:16N 23°04' E 113°30'6615327.1
2014-Jul-18 20:08N 31°57' E 120°52'1 1.9
2014-Jul-18 19:30N 31°58' E 120°51'6701988.5
2014-Jul-18 19:10N 22°53' E 113°31'6711099.2
2014-Jul-18 18:33N 32°00' E 120°48'6621346.7
2014-Jul-18 18:04N 23°04' E 113°30'6561039.1
2014-Jul-18 17:26N 31°60' E 120°37'5 6.0
2014-Jul-18 16:32N 32°01' E 120°31'6545088.2
2014-Jul-18 16:25N 23°04' E 113°30'10223.9
2014-Jul-18 16:22N 22°54' E 113°30'7 7.6
2014-Jul-18 15:27N 22°54' E 113°22'12296.6
2014-Jul-18 15:25N 23°04' E 113°30'10223.9
2014-Jul-18 15:22N 22°54' E 113°30'15545.2
2014-Jul-18 15:20N 23°03' E 113°17'1316.0
2014-Jul-18 14:33N 22°55' E 113°27'66780056.4
2014-Jul-18 14:33N 31°60' E 120°40'151088.5
2014-Jul-18 14:32N 32°01' E 120°23'6595552.7
2014-Jul-18 14:25N 22°54' E 113°30'102464.2
2014-Jul-18 14:25N 23°04' E 113°30'6571853.3
2014-Jul-18 14:03N 31°60' E 120°39'6641327.1
2014-Jul-18 13:33N 22°55' E 113°30'659131794.2
2014-Jul-18 13:33N 32°02' E 120°24'103148.9
2014-Jul-18 13:33N 31°60' E 120°35'11005.4
2014-Jul-18 13:33N 32°00' E 120°34'6641738.9
2014-Jul-18 13:10N 22°54' E 113°30'10119.5
2014-Jul-18 13:05N 23°04' E 113°29'6541248.7
2014-Jul-18 12:33N 32°02' E 120°29'31354.9
2014-Jul-18 12:33N 32°04' E 120°29'3882.1
2014-Jul-18 12:33N 32°01' E 120°31'660792091.8
2014-Jul-18 12:33N 23°03' E 113°20'91137.9
2014-Jul-18 12:32N 23°04' E 113°30'1 1.9
2014-Jul-18 12:05N 23°04' E 113°29'0 0.5
2014-Jul-18 11:33N 23°04' E 113°29'41136.0
2014-Jul-18 11:33N 23°03' E 113°25'66091395.5
2014-Jul-18 11:33N 32°02' E 120°35'6582233.5
2014-Jul-18 11:15N 23°02' E 113°31'37643637.6
2014-Jul-18 11:15N 26°05' E 119°32'3761976.5
2014-Jul-18 11:03N 23°04' E 113°29'6551308.1
2014-Jul-18 10:33N 32°01' E 120°31'655102447.6
2014-Jul-18 10:33N 23°04' E 113°29'370121160.9
2014-Jul-18 10:33N 25°59' E 119°28'37464144.8
2014-Jul-18 10:32N 23°03' E 113°25'6511171421.7
2014-Jul-18 10:32N 31°59' E 120°21'648291524.0
2014-Jul-18 10:32N 23°04' E 113°29'66023750.7
2014-Jul-18 10:30N 32°01' E 120°42'6624262.5
2014-Jul-18 10:21N 23°04' E 113°25'65045870.0
2014-Jul-18 10:20N 31°59' E 120°20'6533898.6
2014-Jul-18 10:10N 23°02' E 113°22'6681087.7
2014-Jul-18 09:33N 32°01' E 120°48'666479520.2
2014-Jul-18 09:33N 23°03' E 113°25'656262456.6
2014-Jul-18 09:33N 32°02' E 120°27'41646.5
2014-Jul-18 09:33N 32°00' E 120°23'9378.0
2014-Jul-18 09:32N 31°56' E 120°14'64419803.7
2014-Jul-18 09:30N 23°04' E 113°25'98612956.7
2014-Jul-18 09:25N 39°05' E 117°44'4451996.7
2014-Jul-18 09:12N 32°01' E 120°31'4 6.2
2014-Jul-18 08:33N 32°02' E 120°27'2850280.8
2014-Jul-18 08:33N 31°47' E 120°54'655214398.8
2014-Jul-18 08:33N 23°04' E 113°30'41241.5
2014-Jul-18 08:33N 23°03' E 113°25'651130277.4
2014-Jul-18 08:33N 31°59' E 120°22'444319650.1
2014-Jul-18 08:32N 39°05' E 117°46'44351490.3
2014-Jul-18 08:32N 31°56' E 120°07'433851.9
2014-Jul-18 08:31N 31°46' E 120°56'656147508.9
2014-Jul-18 08:31N 23°04' E 113°29'6551611.7
2014-Jul-18 08:07N 32°01' E 120°31'444800.5
2014-Jul-18 07:33N 39°05' E 117°46'985322453.5
2014-Jul-18 07:33N 23°04' E 113°30'653294013.7
2014-Jul-18 07:33N 32°02' E 120°28'653117612.7
2014-Jul-18 07:33N 23°04' E 113°30'41467.2
2014-Jul-18 07:33N 23°03' E 113°25'65964077.5
2014-Jul-18 07:32N 32°02' E 120°32'16393.8
2014-Jul-18 07:30N 31°56' E 120°15'642685.8
2014-Jul-18 06:33N 23°04' E 113°30'648116595.3
2014-Jul-18 06:33N 31°59' E 120°21'44430165.1
2014-Jul-18 06:32N 39°05' E 117°46'987197465.2
2014-Jul-18 06:32N 23°03' E 113°25'4170.3
2014-Jul-18 06:30N 23°04' E 113°30'6591977.3
2014-Jul-18 06:10N 31°25' E 121°32'73118.5
2014-Jul-18 05:33N 31°56' E 120°14'445400114.6
2014-Jul-18 05:33N 39°04' E 117°48'9851773120.8
2014-Jul-18 05:33N 23°04' E 113°30'0 5.0
2014-Jul-18 05:33N 23°04' E 113°30'48069.6
2014-Jul-18 05:33N 23°03' E 113°25'66435657.0
2014-Jul-18 05:32N 31°23' E 121°35'6663540.2
2014-Jul-18 05:20N 23°02' E 113°23'9891265.3
2014-Jul-18 04:33N 39°04' E 117°51'9871184739.9
2014-Jul-18 04:33N 23°03' E 113°25'41155.3
2014-Jul-18 04:33N 23°04' E 113°30'025.2
2014-Jul-18 04:33N 23°04' E 113°30'6381148580.2
2014-Jul-18 04:33N 31°57' E 120°06'8744966.4
2014-Jul-18 04:33N 31°21' E 121°40'56166.5
2014-Jul-18 04:13N 31°59' E 120°51'450685.1
2014-Jul-18 03:33N 39°04' E 117°50'987154541.1
2014-Jul-18 03:33N 23°03' E 113°25'4180.4
2014-Jul-18 03:32N 23°04' E 113°29'65567391.8
2014-Jul-18 03:31N 31°47' E 120°54'122196.7
2014-Jul-18 03:31N 31°59' E 120°51'6634113.9
2014-Jul-18 03:21N 23°04' E 113°30'9851238.5
2014-Jul-18 02:33N 39°04' E 117°50'985221686.7
2014-Jul-18 02:33N 23°04' E 113°30'98060.2
2014-Jul-18 02:33N 23°03' E 113°20'81884.6
2014-Jul-18 02:33N 23°04' E 113°29'4569.4
2014-Jul-18 02:32N 23°03' E 113°25'6659609.3
2014-Jul-18 02:28N 31°17' E 121°45'62576.0
2014-Jul-18 02:22N 31°59' E 120°51'1264.2
2014-Jul-18 02:11N 31°47' E 120°54'1625.9
2014-Jul-18 01:33N 32°00' E 120°43'446534987.1
2014-Jul-18 01:33N 39°03' E 117°51'985443292.3
2014-Jul-18 01:33N 23°04' E 113°29'12262.5
2014-Jul-18 01:33N 23°04' E 113°30'4248.9
2014-Jul-18 01:32N 23°03' E 113°25'1 0.9
2014-Jul-18 00:33N 23°04' E 113°25'658394774.8
2014-Jul-18 00:33N 31°60' E 120°35'656147508.6
2014-Jul-18 00:33N 23°04' E 113°29'0 1.9
2014-Jul-18 00:31N 23°04' E 113°29'4 3.8
2014-Jul-17 23:33N 23°04' E 113°25'44398.6
2014-Jul-17 23:33N 23°04' E 113°29'65429440.3
2014-Jul-17 23:32N 32°02' E 120°30'656664.5
2014-Jul-17 22:33N 23°04' E 113°25'4531.0
2014-Jul-17 22:32N 23°04' E 113°29'65416937.2
2014-Jul-17 22:30N 32°02' E 120°29'6543529.9
2014-Jul-17 22:19N 23°04' E 113°29'6413098.6
2014-Jul-17 22:07N 31°56' E 120°13'6431166.7
2014-Jul-17 21:33N 23°04' E 113°25'92802.0
2014-Jul-17 21:33N 22°55' E 113°25'663238715.6
2014-Jul-17 21:33N 32°02' E 120°27'6531175940.8
2014-Jul-17 21:33N 23°04' E 113°29'64037185.4
2014-Jul-17 21:32N 31°56' E 120°12'64036024.8
2014-Jul-17 21:31N 23°04' E 113°29'0 0.1
2014-Jul-17 20:33N 23°04' E 113°29'1315008.6
2014-Jul-17 20:33N 22°52' E 113°33'143273.8
2014-Jul-17 20:33N 23°04' E 113°25'65041807.9
2014-Jul-17 20:32N 31°59' E 120°22'1596.1
2014-Jul-17 20:22N 31°57' E 120°04'63871753.3
2014-Jul-17 20:22N 23°04' E 113°29'3 4.2
2014-Jul-17 19:33N 23°04' E 113°25'76680.3
2014-Jul-17 19:33N 22°58' E 113°30'65369088.7
2014-Jul-17 19:32N 31°59' E 120°22'732004.4
2014-Jul-17 19:30N 31°15' E 121°30'441114.6
2014-Jul-17 19:28N 31°47' E 120°54'657723.7
2014-Jul-17 18:33N 23°04' E 113°25'65824426.8
2014-Jul-17 18:31N 31°19' E 121°33'66491947.9
2014-Jul-17 18:31N 22°54' E 113°28'65720933.8
2014-Jul-17 18:29N 31°59' E 120°22'6483825.7
2014-Jul-17 18:19N 23°04' E 113°29'3 4.5
2014-Jul-17 17:33N 23°04' E 113°25'65926347.7
2014-Jul-17 17:32N 31°22' E 121°30'691680.7
2014-Jul-17 17:29N 31°59' E 120°22'69227087.4
2014-Jul-17 17:28N 22°11' E 113°32'53368.5
2014-Jul-17 17:19N 23°04' E 113°29'3 4.5
2014-Jul-17 16:33N 23°04' E 113°25'65030402.2
2014-Jul-17 16:32N 31°59' E 120°22'1211516.9
2014-Jul-17 16:27N 30°44' E 122°13'541110.9
2014-Jul-17 16:24N 31°25' E 121°32'6607174.7
2014-Jul-17 16:19N 23°04' E 113°29'3 4.6
2014-Jul-17 15:33N 23°04' E 113°25'3101.9
2014-Jul-17 15:31N 23°04' E 113°29'6487455.4
2014-Jul-17 15:26N 31°59' E 120°22'125830.8
2014-Jul-17 15:17N 30°37' E 122°13'653897.3
2014-Jul-17 14:33N 23°04' E 113°25'65031212.9
2014-Jul-17 14:32N 31°59' E 120°22'1306992.7
2014-Jul-17 14:31N 30°34' E 122°17'6523221.7
2014-Jul-17 14:19N 23°04' E 113°29'65613115.6
2014-Jul-17 14:16N 31°46' E 120°56'7026133.2
2014-Jul-17 14:09N 22°09' E 113°28'5592.6
2014-Jul-17 13:33N 23°04' E 113°25'649179780.5
2014-Jul-17 13:33N 31°59' E 120°21'13554163.7
2014-Jul-17 13:33N 30°32' E 122°23'65418530.3
2014-Jul-17 13:31N 23°04' E 113°29'65640013.6
2014-Jul-17 13:30N 31°46' E 120°56'7003788.8
2014-Jul-17 13:19N 22°10' E 113°31'5471.8
2014-Jul-17 12:33N 23°04' E 113°25'644210753.6
2014-Jul-17 12:33N 31°56' E 120°14'68674790.4
2014-Jul-17 12:33N 22°11' E 113°33'69165418.0
2014-Jul-17 12:32N 30°30' E 122°25'65438610.8
2014-Jul-17 12:31N 23°04' E 113°29'6562080.0
2014-Jul-17 12:12N 31°46' E 120°56'4163.8
2014-Jul-17 11:33N 31°56' E 120°09'68255814.6
2014-Jul-17 11:33N 22°10' E 113°36'390701801.4
2014-Jul-17 11:33N 25°57' E 119°23'36945824.6
2014-Jul-17 11:32N 23°04' E 113°25'65523130.5
2014-Jul-17 11:30N 30°27' E 122°26'6534634.2
2014-Jul-17 11:22N 23°04' E 113°29'6393973.3
2014-Jul-17 11:12N 32°03' E 119°58'68118300.5
2014-Jul-17 11:10N 22°22' E 113°18'343962.1
2014-Jul-17 11:10N 22°54' E 113°28'431295.5
2014-Jul-17 11:08N 22°12' E 113°36'5393.1
2014-Jul-17 10:33N 23°04' E 113°25'64071960.1
2014-Jul-17 10:33N 31°57' E 120°03'63819450.1
2014-Jul-17 10:31N 23°04' E 113°29'65273370.7
2014-Jul-17 10:30N 30°25' E 122°27'1577861.2
2014-Jul-17 10:29N 31°59' E 120°00'3648181.1
2014-Jul-17 10:27N 25°57' E 119°23'3697268.1
2014-Jul-17 10:23N 22°55' E 113°30'406496.1
2014-Jul-17 10:23N 22°17' E 113°20'141167.4
2014-Jul-17 10:22N 22°14' E 113°35'6946700.0
2014-Jul-17 10:16N 31°23' E 121°30'86473.2
2014-Jul-17 10:05N 32°00' E 119°60'158297.2
2014-Jul-17 09:33N 30°25' E 122°27'652123585.5
2014-Jul-17 09:33N 23°04' E 113°30'638143558.3
2014-Jul-17 09:33N 31°58' E 120°02'4589.6
2014-Jul-17 09:32N 31°58' E 120°06'63925568.3
2014-Jul-17 09:31N 23°04' E 113°29'248.4
2014-Jul-17 09:28N 23°03' E 113°30'65671618.1
2014-Jul-17 09:28N 31°21' E 121°30'6716544.5
2014-Jul-17 09:22N 22°19' E 114°09'3612993.2
2014-Jul-17 09:15N 25°57' E 119°23'369537.0
2014-Jul-17 08:33N 23°04' E 113°25'658592531.8
2014-Jul-17 08:33N 31°21' E 121°30'6920611.6
2014-Jul-17 08:33N 31°58' E 120°22'652130483.7
2014-Jul-17 08:33N 22°57' E 113°33'655107216.2
2014-Jul-17 08:32N 30°25' E 122°27'6523696.1
2014-Jul-17 08:22N 23°04' E 113°30'6385247.3
2014-Jul-17 08:15N 31°56' E 120°08'3613616.2
2014-Jul-17 08:09N 25°57' E 119°23'313534.5
2014-Jul-17 07:33N 30°25' E 122°27'31343322.1
2014-Jul-17 07:33N 25°57' E 119°23'37413756.4
2014-Jul-17 07:31N 23°03' E 113°19'66314375.7
2014-Jul-17 07:29N 31°21' E 121°31'765233.9
2014-Jul-17 07:28N 31°56' E 120°12'6416572.0
2014-Jul-17 07:22N 23°04' E 113°30'6383036.0
2014-Jul-17 07:09N 31°56' E 120°08'79132.0
2014-Jul-17 06:33N 31°21' E 121°31'499256869.6
2014-Jul-17 06:33N 39°05' E 117°44'4458899.2
2014-Jul-17 06:30N 31°56' E 120°08'63815528.9
2014-Jul-17 06:28N 23°04' E 113°30'9851087.1
2014-Jul-17 05:33N 39°04' E 117°48'44311819.0
2014-Jul-17 05:31N 31°56' E 120°08'63811377.7
2014-Jul-17 05:28N 23°04' E 113°30'9861087.0
2014-Jul-17 04:33N 39°05' E 117°45'4419173.7
2014-Jul-17 04:31N 31°58' E 120°03'68688182.6
2014-Jul-17 04:30N 22°10' E 113°27'68615061.6
2014-Jul-17 04:27N 31°56' E 120°08'6383330.9
2014-Jul-17 04:16N 23°04' E 113°30'13155.8
2014-Jul-17 04:11N 22°51' E 113°34'9971598.5
2014-Jul-17 03:34N 39°05' E 117°46'10381245335.0
2014-Jul-17 03:33N 22°10' E 113°31'69922655.5
2014-Jul-17 03:32N 31°47' E 120°54'40231.9
2014-Jul-17 03:21N 31°56' E 120°08'6387204.8
2014-Jul-17 03:16N 23°04' E 113°30'639904.5
2014-Jul-17 02:33N 31°56' E 120°10'64822872.3
2014-Jul-17 02:32N 22°51' E 113°34'13196.4
2014-Jul-17 02:28N 23°04' E 113°30'12471.3
2014-Jul-17 02:26N 23°03' E 113°17'11004335.9
2014-Jul-17 02:11N 35°08' E 129°03'4836481.4
2014-Jul-17 02:07N 31°57' E 120°12'4 6.6
2014-Jul-17 01:33N 31°57' E 120°16'479430791.7
2014-Jul-17 01:33N 35°06' E 129°03'590193163.8
2014-Jul-17 01:33N 39°05' E 117°46'445320236.1
2014-Jul-17 01:33N 31°57' E 120°14'65139041.0
2014-Jul-17 01:32N 22°51' E 113°34'1347.7
2014-Jul-17 01:16N 23°04' E 113°30'561310.4
2014-Jul-17 01:13N 22°07' E 113°33'58605.1
2014-Jul-17 01:08N 23°03' E 113°16'6531146.4
2014-Jul-17 00:33N 31°58' E 120°18'4772.0
2014-Jul-17 00:33N 31°60' E 120°22'65765734.9
2014-Jul-17 00:32N 22°51' E 113°34'442228.2
2014-Jul-17 00:31N 22°07' E 113°33'2790.1
2014-Jul-17 00:13N 22°27' E 113°52'42703.5
2014-Jul-17 00:10N 23°04' E 113°30'6491063.8
2014-Jul-16 23:33N 31°60' E 120°23'6760.2
2014-Jul-16 23:33N 32°02' E 120°29'282449.3
2014-Jul-16 23:32N 31°46' E 120°56'664125764.3
2014-Jul-16 23:32N 22°51' E 113°34'444395.1
2014-Jul-16 23:31N 22°07' E 113°33'112961587.4
2014-Jul-16 23:30N 35°07' E 129°03'109029510.1
2014-Jul-16 23:28N 23°04' E 113°30'657722.8
2014-Jul-16 22:33N 32°00' E 120°37'84006.8
2014-Jul-16 22:33N 32°02' E 120°28'66327416.8
2014-Jul-16 22:32N 22°51' E 113°34'1477.9
2014-Jul-16 22:21N 23°04' E 113°29'1458.3
2014-Jul-16 22:07N 22°51' E 113°34'1 1.0
2014-Jul-16 21:33N 22°51' E 113°34'66529185.0
2014-Jul-16 21:31N 32°01' E 120°35'6569806.1
2014-Jul-16 21:27N 23°04' E 113°29'57413.5
2014-Jul-16 21:19N 22°07' E 113°33'5661.5
2014-Jul-16 20:24N 23°04' E 113°32'320.3
2014-Jul-16 20:15N 23°04' E 113°29'0 0.0
2014-Jul-16 18:33N 23°04' E 113°29'656124249.9
2014-Jul-16 18:33N 31°46' E 120°56'7013014.1
2014-Jul-16 18:19N 22°07' E 113°33'701920.1
2014-Jul-16 17:33N 31°46' E 120°56'6565661.6
2014-Jul-16 17:26N 23°04' E 113°29'572498.1
2014-Jul-16 17:25N 22°07' E 113°33'7042372.7
2014-Jul-16 17:07N 31°38' E 121°16'7041166.2
2014-Jul-16 16:31N 22°07' E 113°33'70147601.0
2014-Jul-16 16:30N 31°46' E 120°56'65610540.4
2014-Jul-16 16:26N 23°04' E 113°29'6592781.9
2014-Jul-16 16:12N 31°34' E 121°19'2335.7
2014-Jul-16 15:33N 31°46' E 120°56'265913.4
2014-Jul-16 15:33N 31°32' E 121°22'70319460.0
2014-Jul-16 15:31N 22°07' E 113°33'57205.7
2014-Jul-16 15:14N 23°04' E 113°29'13304.9
2014-Jul-16 15:12N 22°51' E 113°34'6641023.3
2014-Jul-16 14:33N 31°46' E 120°56'66448770.8
2014-Jul-16 14:32N 22°51' E 113°34'66711438.0
2014-Jul-16 14:29N 31°29' E 121°27'6601966.1
2014-Jul-16 14:08N 23°04' E 113°29'6591123.6
2014-Jul-16 13:33N 31°27' E 121°29'6656267.9
2014-Jul-16 13:27N 23°02' E 113°22'7968.9
2014-Jul-16 13:26N 23°04' E 113°29'1039.9
2014-Jul-16 13:11N 22°55' E 113°25'9205.1
2014-Jul-16 13:08N 22°51' E 113°34'441233.4
2014-Jul-16 13:06N 22°07' E 113°33'4787.2
2014-Jul-16 12:33N 22°55' E 113°28'1036349.7
2014-Jul-16 12:33N 23°05' E 113°26'66174372.7
2014-Jul-16 12:33N 31°25' E 121°31'6603182.8
2014-Jul-16 12:20N 23°04' E 113°29'14219.3
2014-Jul-16 12:17N 22°51' E 113°34'667912.7
2014-Jul-16 11:33N 31°25' E 121°32'66036549.1
2014-Jul-16 11:32N 23°04' E 113°29'0 0.9
2014-Jul-16 11:20N 23°04' E 113°29'658830.0
2014-Jul-16 10:33N 31°24' E 121°31'66622193.6
2014-Jul-16 10:31N 22°51' E 113°34'3716887.0
2014-Jul-16 10:28N 25°58' E 119°26'36816579.8
2014-Jul-16 10:26N 23°04' E 113°29'0 2.2
2014-Jul-16 10:23N 23°04' E 113°29'57303.5
2014-Jul-16 10:12N 22°07' E 113°33'24373.3
2014-Jul-16 10:08N 22°20' E 113°55'3763.6
2014-Jul-16 09:33N 22°51' E 113°34'14901.4
2014-Jul-16 09:32N 23°04' E 113°29'504614.5
2014-Jul-16 09:32N 22°19' E 113°52'67971911.2
2014-Jul-16 09:31N 31°22' E 121°30'6567925.4
2014-Jul-16 09:26N 23°04' E 113°29'3684912.9
2014-Jul-16 09:22N 25°58' E 119°26'3961511.7
2014-Jul-16 09:06N 22°07' E 113°33'1833.6
2014-Jul-16 08:33N 22°17' E 113°50'68242346.3
2014-Jul-16 08:33N 31°22' E 121°30'656590432.3
2014-Jul-16 08:32N 23°04' E 113°29'3684687.1
2014-Jul-16 08:28N 25°58' E 119°26'3718298.6
2014-Jul-16 08:25N 22°51' E 113°34'13271.2
2014-Jul-16 08:22N 23°04' E 113°30'1316.1
2014-Jul-16 07:33N 22°51' E 113°34'663183699.2
2014-Jul-16 07:33N 31°22' E 121°30'6992516471.9
2014-Jul-16 07:33N 22°07' E 113°33'579311.2
2014-Jul-16 07:32N 23°04' E 113°29'132.3
2014-Jul-16 07:31N 23°04' E 113°30'010.2
2014-Jul-16 07:29N 23°04' E 113°29'525228.6
2014-Jul-16 07:28N 22°14' E 113°46'40357.3
2014-Jul-16 07:22N 22°52' E 113°33'3713776.0
2014-Jul-16 07:16N 25°58' E 119°26'388543.3
2014-Jul-16 06:33N 22°12' E 113°41'1034155153.4
2014-Jul-16 06:33N 39°05' E 117°45'98547291.6
2014-Jul-16 06:31N 23°04' E 113°29'65621469.9
2014-Jul-16 06:29N 31°22' E 121°30'65613121.0
2014-Jul-16 06:26N 23°04' E 113°29'128.0
2014-Jul-16 06:25N 23°04' E 113°30'36830108.8
2014-Jul-16 06:24N 25°58' E 119°26'3718790.6
2014-Jul-16 06:22N 22°51' E 113°34'3098.2
2014-Jul-16 06:03N 22°23' E 113°43'1428.4
2014-Jul-16 05:33N 22°10' E 113°36'10371244269.2
2014-Jul-16 05:33N 39°04' E 117°48'79167779.1
2014-Jul-16 05:33N 25°58' E 119°26'36973702.9
2014-Jul-16 05:32N 23°04' E 113°29'65632357.0
2014-Jul-16 05:31N 31°21' E 121°30'6563363.4
2014-Jul-16 05:19N 23°04' E 113°30'1 4.1
2014-Jul-16 05:10N 23°04' E 113°29'9851608.7
2014-Jul-16 04:34N 39°04' E 117°48'79060543.6
2014-Jul-16 04:33N 25°58' E 119°26'36969823.8
2014-Jul-16 04:32N 23°04' E 113°29'6562361826.6
2014-Jul-16 04:32N 31°22' E 121°30'65643720.3
2014-Jul-16 04:31N 23°04' E 113°30'1 9.9
2014-Jul-16 04:28N 23°04' E 113°29'48547.1
2014-Jul-16 04:23N 22°18' E 113°42'12143.9
2014-Jul-16 04:18N 22°10' E 113°32'41194.7
2014-Jul-16 04:05N 22°52' E 113°33'9971881.3
2014-Jul-16 03:34N 39°04' E 117°46'49799489.7
2014-Jul-16 03:33N 31°22' E 121°30'689309943.9
2014-Jul-16 03:33N 22°15' E 113°41'514473.5
2014-Jul-16 03:32N 23°04' E 113°29'146.3
2014-Jul-16 03:31N 23°04' E 113°30'5155.1
2014-Jul-16 03:30N 23°02' E 113°24'551489.9
2014-Jul-16 03:27N 22°07' E 113°33'39641976.6
2014-Jul-16 03:27N 25°58' E 119°26'3745734.9
2014-Jul-16 03:23N 22°54' E 113°28'454957.2
2014-Jul-16 03:22N 22°09' E 113°29'75256.0
2014-Jul-16 03:05N 23°23' E 113°13'2243.3
2014-Jul-16 02:34N 23°03' E 113°25'659158162.4
2014-Jul-16 02:33N 31°22' E 121°30'495297282.4
2014-Jul-16 02:33N 39°04' E 117°51'49565991.9
2014-Jul-16 02:33N 31°21' E 121°27'6892478810.6
2014-Jul-16 02:33N 22°15' E 113°39'509075.0
2014-Jul-16 02:32N 23°04' E 113°29'65681375.1
2014-Jul-16 02:32N 32°00' E 120°35'3674266.1
2014-Jul-16 02:27N 25°58' E 119°26'3683074.1
2014-Jul-16 02:20N 23°04' E 113°30'9851283.9
2014-Jul-16 01:34N 39°05' E 117°44'443797996.9
2014-Jul-16 01:33N 32°02' E 120°28'692498076.3
2014-Jul-16 01:33N 22°14' E 113°38'691828791.3
2014-Jul-16 01:33N 31°22' E 121°30'65640721.9
2014-Jul-16 01:32N 23°04' E 113°29'142.5
2014-Jul-16 01:31N 23°04' E 113°30'57803.0
2014-Jul-16 01:27N 22°07' E 113°33'7157.1
2014-Jul-16 01:25N 22°10' E 113°26'4006456.1
2014-Jul-16 01:21N 25°58' E 119°26'389491.5
2014-Jul-16 00:33N 22°15' E 113°38'691226013.8
2014-Jul-16 00:33N 31°22' E 121°30'34251244.5
2014-Jul-16 00:33N 25°58' E 119°26'36512269.4
2014-Jul-16 00:31N 31°59' E 120°22'6482333707.3
2014-Jul-16 00:31N 23°04' E 113°29'656683.1
2014-Jul-15 23:33N 31°22' E 121°30'7217199.2
2014-Jul-15 23:33N 31°57' E 120°16'36261984.3
2014-Jul-15 23:33N 25°58' E 119°26'38913714.4
2014-Jul-15 23:31N 22°14' E 113°38'5045359.2
2014-Jul-15 23:31N 23°04' E 113°29'0 4.0
2014-Jul-15 23:25N 23°04' E 113°29'65615138.9
2014-Jul-15 23:23N 31°47' E 120°56'66459768.8
2014-Jul-15 23:22N 22°53' E 113°32'1291.5
2014-Jul-15 23:14N 23°04' E 113°29'5073.7
2014-Jul-15 22:33N 22°15' E 113°38'691414349.8
2014-Jul-15 22:33N 31°22' E 121°30'699419425.9
2014-Jul-15 22:33N 22°07' E 113°33'701100947.4
2014-Jul-15 22:33N 31°46' E 120°56'358643550.0
2014-Jul-15 22:33N 25°58' E 119°26'36912637.7
2014-Jul-15 22:31N 23°04' E 113°29'0 8.3
2014-Jul-15 22:28N 23°04' E 113°29'6407483.3
2014-Jul-15 22:23N 31°56' E 120°11'64013558.0
2014-Jul-15 22:20N 23°04' E 113°29'5064.4
2014-Jul-15 21:33N 22°15' E 113°38'69162152.0
2014-Jul-15 21:33N 31°22' E 121°30'6568912.1
2014-Jul-15 21:28N 23°04' E 113°29'36813960.2
2014-Jul-15 21:27N 25°58' E 119°26'4005126.5
2014-Jul-15 21:22N 22°11' E 113°25'53212.1
2014-Jul-15 21:07N 23°04' E 113°29'5089.9
2014-Jul-15 20:33N 22°15' E 113°38'87604.8
2014-Jul-15 20:33N 22°07' E 113°33'689225653.3
2014-Jul-15 20:33N 31°57' E 120°15'36152007.9
2014-Jul-15 20:33N 25°58' E 119°27'36912909.3
2014-Jul-15 20:31N 23°04' E 113°29'656168687.3
2014-Jul-15 20:31N 31°46' E 120°56'11317609.5
2014-Jul-15 20:30N 30°25' E 122°27'7529886.9
2014-Jul-15 20:30N 31°22' E 121°30'6568006.0
2014-Jul-15 20:25N 23°04' E 113°29'494595.1
2014-Jul-15 20:25N 22°16' E 113°21'49681.7
2014-Jul-15 20:20N 23°04' E 113°29'5772.5
2014-Jul-15 19:33N 22°07' E 113°33'82027.9
2014-Jul-15 19:33N 22°15' E 113°38'2010327.5
2014-Jul-15 19:33N 22°22' E 113°18'444949.9
2014-Jul-15 19:32N 23°04' E 113°29'656147586.5
2014-Jul-15 19:32N 31°46' E 120°56'333227.8
2014-Jul-15 19:32N 31°60' E 120°20'703472.4
2014-Jul-15 19:30N 31°22' E 121°30'6562333.7
2014-Jul-15 19:13N 23°04' E 113°29'0 2.4
2014-Jul-15 19:04N 23°04' E 113°29'5097.7
2014-Jul-15 18:33N 22°15' E 113°38'688165098.2
2014-Jul-15 18:33N 32°00' E 120°23'650101710.9
2014-Jul-15 18:32N 23°04' E 113°29'65634229.4
2014-Jul-15 18:31N 31°22' E 121°30'656147624.1
2014-Jul-15 18:31N 23°04' E 113°29'57918.5
2014-Jul-15 18:27N 22°07' E 113°33'70238862.2
2014-Jul-15 18:26N 31°24' E 121°31'6592867.0
2014-Jul-15 18:12N 23°04' E 113°29'0 0.3
2014-Jul-15 17:33N 23°04' E 113°29'5020012.7
2014-Jul-15 17:33N 22°15' E 113°38'69199487.0
2014-Jul-15 17:33N 32°02' E 120°27'672917.9
2014-Jul-15 17:31N 31°22' E 121°30'6994201.2
2014-Jul-15 17:21N 22°07' E 113°33'573793.4
2014-Jul-15 17:20N 23°04' E 113°29'6565677.1
2014-Jul-15 17:13N 31°47' E 120°56'65638091.7
2014-Jul-15 17:12N 23°04' E 113°29'6551009.3
2014-Jul-15 16:33N 32°02' E 120°31'693623794.6
2014-Jul-15 16:33N 22°15' E 113°38'691497216.4
2014-Jul-15 16:33N 31°22' E 121°30'65641435.3
2014-Jul-15 16:32N 23°04' E 113°29'0 4.1
2014-Jul-15 16:27N 23°04' E 113°29'57187.6
2014-Jul-15 16:09N 22°07' E 113°33'814.0
2014-Jul-15 15:33N 22°15' E 113°38'691108090.5
2014-Jul-15 15:33N 31°22' E 121°30'6567473.4
2014-Jul-15 15:27N 23°04' E 113°29'018.9
2014-Jul-15 15:26N 23°04' E 113°29'127.8
2014-Jul-15 15:25N 23°04' E 113°30'0 0.3
2014-Jul-15 14:33N 23°04' E 113°29'5011282.4
2014-Jul-15 14:33N 22°15' E 113°38'691118385.6
2014-Jul-15 14:33N 31°22' E 121°30'33426687.4
2014-Jul-15 14:32N 26°05' E 119°31'3768508.8
2014-Jul-15 14:29N 23°04' E 113°29'1 8.2
2014-Jul-15 14:25N 23°04' E 113°30'5058.2
2014-Jul-15 13:33N 22°15' E 113°38'4733486.5
2014-Jul-15 13:33N 23°01' E 113°31'65838811.4
2014-Jul-15 13:32N 31°22' E 121°30'75276.2
2014-Jul-15 13:16N 30°25' E 122°27'6526648.2
2014-Jul-15 13:10N 23°04' E 113°30'65839453.9
2014-Jul-15 13:09N 31°60' E 120°40'5795.3
2014-Jul-15 12:33N 31°22' E 121°30'6036208.0
2014-Jul-15 12:33N 32°00' E 120°35'693831999.6
2014-Jul-15 12:33N 22°15' E 113°38'401388.4
2014-Jul-15 12:31N 22°54' E 113°31'1065.6
2014-Jul-15 12:22N 23°04' E 113°30'3161732.8
2014-Jul-15 12:11N 19°42' E 109°09'294466.2
2014-Jul-15 11:33N 22°15' E 113°38'692191629.0
2014-Jul-15 11:33N 32°02' E 120°29'66623041.3
2014-Jul-15 11:31N 22°54' E 113°23'6688461.8
2014-Jul-15 11:27N 31°22' E 121°30'691777.6
2014-Jul-15 10:33N 22°15' E 113°38'68988525.1
2014-Jul-15 10:33N 31°59' E 120°27'652371.3
2014-Jul-15 10:31N 31°22' E 121°30'6566381.0
2014-Jul-15 10:25N 23°04' E 113°30'656761.6
2014-Jul-15 09:33N 31°22' E 121°30'6810615.8
2014-Jul-15 09:33N 31°58' E 120°23'6861234606.5
2014-Jul-15 09:33N 22°15' E 113°38'6776075.5
2014-Jul-15 09:26N 31°58' E 120°03'63831030.3
2014-Jul-15 09:25N 23°04' E 113°30'656753.3
2014-Jul-15 08:33N 31°22' E 121°30'713689.3
2014-Jul-15 08:32N 31°57' E 120°18'6831229346.2
2014-Jul-15 08:32N 22°15' E 113°38'6792910.8
2014-Jul-15 08:18N 31°57' E 120°11'6415068.5
2014-Jul-15 08:10N 23°04' E 113°30'6561072.2
2014-Jul-15 07:33N 31°22' E 121°30'69159190.8
2014-Jul-15 07:33N 22°15' E 113°38'6799477.7
2014-Jul-15 07:28N 31°56' E 120°11'1592.8
2014-Jul-15 07:28N 31°56' E 120°11'561100938.5
2014-Jul-15 07:28N 23°08' E 116°38'5662037878.3
2014-Jul-15 07:28N 31°58' E 120°20'64728740.9
2014-Jul-15 07:27N 23°04' E 113°30'5056.5
2014-Jul-15 06:33N 22°15' E 113°38'69167190.9
2014-Jul-15 06:33N 31°22' E 121°30'69911135.3
2014-Jul-15 06:29N 22°07' E 113°33'706110535.0
2014-Jul-15 06:29N 31°55' E 120°52'456117344.1
2014-Jul-15 06:28N 39°05' E 117°44'4457188.6
2014-Jul-15 06:25N 31°56' E 120°11'112.6
2014-Jul-15 06:20N 31°57' E 120°10'6465379.8
2014-Jul-15 06:12N 23°02' E 113°22'65030005.8
2014-Jul-15 06:11N 31°57' E 120°19'6831087.8
2014-Jul-15 05:33N 22°15' E 113°38'691497202.4
2014-Jul-15 05:33N 31°22' E 121°30'4981793269.8
2014-Jul-15 05:33N 39°05' E 117°45'445160035.6
2014-Jul-15 05:33N 31°56' E 120°11'33201.6
2014-Jul-15 05:33N 31°56' E 120°14'68938133.7
2014-Jul-15 05:32N 22°07' E 113°33'68955097.2
2014-Jul-15 05:31N 31°57' E 120°13'443459.9
2014-Jul-15 04:33N 39°04' E 117°50'443227927.3
2014-Jul-15 04:33N 31°57' E 120°15'21137.9
2014-Jul-15 04:33N 31°58' E 120°17'68349160.1
2014-Jul-15 04:32N 22°15' E 113°38'68261410.7
2014-Jul-15 04:32N 30°25' E 122°27'663149131.8
2014-Jul-15 04:31N 22°54' E 113°23'6 6.2
2014-Jul-15 03:33N 22°54' E 113°17'662397459.8
2014-Jul-15 03:33N 31°60' E 120°20'7036174.8
2014-Jul-15 03:33N 31°22' E 121°30'7113361.5
2014-Jul-15 03:33N 31°59' E 120°20'655262185.3
2014-Jul-15 03:33N 22°54' E 113°31'4047595.1
2014-Jul-15 03:33N 22°15' E 113°38'103319771.6
2014-Jul-15 03:30N 39°05' E 117°44'4453346.8
2014-Jul-15 03:22N 31°57' E 120°13'6442549.9
2014-Jul-15 03:06N 23°04' E 113°25'6531187.4
2014-Jul-15 02:34N 32°00' E 120°24'441397313.8
2014-Jul-15 02:33N 39°04' E 117°50'44359065.9
2014-Jul-15 02:33N 31°57' E 120°16'83605.6
2014-Jul-15 02:33N 32°02' E 120°24'682306925.2
2014-Jul-15 02:33N 22°18' E 113°48'397430.7
2014-Jul-15 02:32N 22°53' E 113°30'403751.5
2014-Jul-15 02:32N 22°15' E 113°38'4526893.4
2014-Jul-15 02:32N 22°59' E 113°31'11261.5
2014-Jul-15 02:29N 23°03' E 113°19'66316798.3
2014-Jul-15 02:27N 31°22' E 121°30'664217248.7
2014-Jul-15 02:27N 22°54' E 113°30'114979.1
2014-Jul-15 02:26N 23°04' E 113°28'5866.0
2014-Jul-15 01:34N 22°06' E 113°33'94760.7
2014-Jul-15 01:33N 22°15' E 113°38'6822456442.5
2014-Jul-15 01:33N 30°25' E 122°27'14146175.5
2014-Jul-15 01:33N 32°02' E 120°27'65467219.2
2014-Jul-15 01:33N 23°04' E 113°29'655262018.6
2014-Jul-15 01:32N 32°04' E 120°27'685969.7
2014-Jul-15 01:32N 31°22' E 121°30'65634243.8
2014-Jul-15 01:31N 23°03' E 113°31'4950.9
2014-Jul-15 00:33N 22°15' E 113°38'5136427.6
2014-Jul-15 00:33N 23°04' E 113°25'653293698.3
2014-Jul-15 00:33N 32°00' E 120°24'73231.7
2014-Jul-15 00:33N 32°02' E 120°32'656337174.3
2014-Jul-15 00:33N 23°04' E 113°29'641128177.4
2014-Jul-15 00:33N 31°56' E 120°12'14715559.5
2014-Jul-15 00:32N 30°25' E 122°27'13353146.6
2014-Jul-15 00:32N 31°60' E 120°38'6651196213.8
2014-Jul-15 00:32N 22°53' E 113°31'665682.7
2014-Jul-14 23:33N 32°01' E 120°37'62485.9
2014-Jul-14 23:33N 32°02' E 120°30'6438681.6
2014-Jul-14 23:33N 31°22' E 121°30'757919.2
2014-Jul-14 23:33N 31°56' E 120°12'1553557.2
2014-Jul-14 23:33N 32°03' E 120°28'654117715.8
2014-Jul-14 23:32N 23°04' E 113°29'6141.6
2014-Jul-14 23:30N 22°58' E 113°30'655692.1
2014-Jul-14 22:33N 31°59' E 120°27'651390637.0
2014-Jul-14 22:33N 23°04' E 113°29'656787287.9
2014-Jul-14 22:33N 31°22' E 121°30'6210180.8
2014-Jul-14 22:33N 32°01' E 120°34'7109.3
2014-Jul-14 22:29N 32°01' E 120°42'66833884.6
2014-Jul-14 22:28N 22°54' E 113°28'6507982.2
2014-Jul-14 22:23N 31°56' E 120°12'1496.1
2014-Jul-14 22:14N 32°01' E 119°57'27245.7
2014-Jul-14 22:08N 32°04' E 120°29'3 5.5
2014-Jul-14 21:33N 32°04' E 120°32'65778859.9
2014-Jul-14 21:33N 23°04' E 113°29'65619202.0
2014-Jul-14 21:31N 31°22' E 121°30'7524477.9
2014-Jul-14 21:31N 30°25' E 122°27'1324561.2
2014-Jul-14 21:29N 32°00' E 120°40'25157.4
2014-Jul-14 21:20N 31°56' E 120°12'6504343.3
2014-Jul-14 21:11N 22°55' E 113°26'6685391.5
2014-Jul-14 21:03N 31°55' E 120°48'6591304.2
2014-Jul-14 20:33N 23°04' E 113°29'64228894.7
2014-Jul-14 20:32N 31°57' E 120°14'745885.3
2014-Jul-14 20:31N 31°22' E 121°30'66422542.0
2014-Jul-14 20:29N 22°53' E 113°30'64911347.1
2014-Jul-14 20:26N 31°56' E 120°12'14735297.3
2014-Jul-14 20:25N 30°25' E 122°27'118603.7
2014-Jul-14 20:14N 31°50' E 120°51'2740.7
2014-Jul-14 19:33N 31°59' E 120°20'64793145.1
2014-Jul-14 19:33N 23°04' E 113°30'13101.9
2014-Jul-14 19:25N 22°51' E 113°33'6585266.8
2014-Jul-14 19:18N 30°25' E 122°27'1472151.6
2014-Jul-14 19:14N 31°56' E 120°12'75111.3
2014-Jul-14 18:33N 31°22' E 121°30'656590228.0
2014-Jul-14 18:33N 23°04' E 113°30'65278233.0
2014-Jul-14 18:33N 30°25' E 122°27'1477900.2
2014-Jul-14 18:32N 31°56' E 120°12'56372417.3
2014-Jul-14 18:31N 22°33' E 120°14'3661093.5
2014-Jul-14 18:11N 22°15' E 113°38'2834783.6
2014-Jul-14 18:08N 24°21' E 118°14'4 6.7
2014-Jul-14 17:33N 24°21' E 118°10'2801008214.5
2014-Jul-14 17:33N 22°15' E 113°38'5022553.3
2014-Jul-14 17:33N 23°04' E 113°30'65671542.8
2014-Jul-14 17:33N 31°22' E 121°30'754270.6
2014-Jul-14 17:32N 31°56' E 120°12'147604.1
2014-Jul-14 17:17N 30°25' E 122°27'682937.6
2014-Jul-14 16:33N 22°15' E 113°38'691310743.0
2014-Jul-14 16:33N 31°22' E 121°30'6562360911.9
2014-Jul-14 16:33N 23°04' E 113°30'26523227.0
2014-Jul-14 16:33N 24°25' E 118°05'4657064.5
2014-Jul-14 16:29N 31°56' E 120°12'68531217.5
2014-Jul-14 16:27N 22°21' E 113°13'6936013.3
2014-Jul-14 16:20N 30°25' E 122°27'682871.5
2014-Jul-14 15:33N 22°15' E 113°38'5025775.2
2014-Jul-14 15:33N 23°04' E 113°30'65620709.8
2014-Jul-14 15:31N 31°22' E 121°30'753408.5
2014-Jul-14 15:30N 30°25' E 122°27'1476084.1
2014-Jul-14 15:29N 31°56' E 120°12'68245001.4
2014-Jul-14 15:29N 31°30' E 121°26'6998410.2
2014-Jul-14 15:24N 22°28' E 113°12'698831.6
2014-Jul-14 14:33N 31°27' E 121°29'660124973.0
2014-Jul-14 14:33N 23°04' E 113°29'5013942.7
2014-Jul-14 14:33N 22°15' E 113°38'291116429.2
2014-Jul-14 14:33N 19°44' E 109°11'94314329.3
2014-Jul-14 14:29N 31°56' E 120°12'14715568.4
2014-Jul-14 14:28N 30°25' E 122°27'6903431.0
2014-Jul-14 14:16N 22°22' E 113°17'2028.6
2014-Jul-14 13:33N 22°15' E 113°38'5022656.8
2014-Jul-14 13:33N 23°04' E 113°29'65625953.2
2014-Jul-14 13:32N 31°22' E 121°30'41219.9
2014-Jul-14 13:32N 31°25' E 121°32'70242821.6
2014-Jul-14 13:31N 22°18' E 113°20'6855170.9
2014-Jul-14 13:23N 31°56' E 120°12'6495324.7
2014-Jul-14 13:15N 22°52' E 113°33'3753.5
2014-Jul-14 12:33N 22°15' E 113°38'131512.0
2014-Jul-14 12:33N 22°13' E 113°24'699419619.3
2014-Jul-14 12:33N 31°22' E 121°30'656214704.0
2014-Jul-14 12:33N 23°04' E 113°29'65678754.1
2014-Jul-14 12:32N 31°21' E 121°31'707823.5
2014-Jul-14 12:32N 31°58' E 120°22'14216441.9
2014-Jul-14 12:31N 30°25' E 122°27'1472569.5
2014-Jul-14 12:28N 31°56' E 120°12'65017196.8
2014-Jul-14 12:25N 22°51' E 113°34'0212.9
2014-Jul-14 12:25N 22°51' E 113°33'1315.5
2014-Jul-14 11:33N 23°04' E 113°29'5013945.9
2014-Jul-14 11:33N 22°15' E 113°38'69125895.4
2014-Jul-14 11:31N 31°22' E 121°30'76106.7
2014-Jul-14 11:31N 31°15' E 121°32'6607895.7
2014-Jul-14 11:26N 22°51' E 113°34'0 2.2
2014-Jul-14 11:13N 22°51' E 113°33'0 0.7
2014-Jul-14 10:33N 22°51' E 113°34'664796339.5
2014-Jul-14 10:33N 31°22' E 121°30'69171028.0
2014-Jul-14 10:33N 22°15' E 113°38'5012951.3
2014-Jul-14 10:33N 23°04' E 113°29'9862259.0
2014-Jul-14 10:06N 39°04' E 117°51'9973590041.5
2014-Jul-14 10:06N 22°52' E 113°33'1323.9
2014-Jul-14 09:33N 23°04' E 113°29'501678.3
2014-Jul-14 09:31N 22°15' E 113°38'3766130.8
2014-Jul-14 09:31N 22°51' E 113°34'66461257.7
2014-Jul-14 09:31N 31°22' E 121°30'66315923.5
2014-Jul-14 09:28N 22°51' E 113°33'435729.9
2014-Jul-14 09:28N 22°09' E 113°37'688107627.4
2014-Jul-14 09:27N 30°25' E 122°27'69110458.2
2014-Jul-14 09:23N 22°09' E 113°30'42497.2
2014-Jul-14 09:18N 22°52' E 113°33'663883.5
2014-Jul-14 08:33N 31°22' E 121°30'691207160.6
2014-Jul-14 08:33N 22°15' E 113°38'620866.3
2014-Jul-14 08:33N 22°11' E 113°33'536013.7
2014-Jul-14 08:33N 23°04' E 113°29'544613.6
2014-Jul-14 08:32N 22°10' E 113°32'414879.5
2014-Jul-14 08:31N 22°51' E 113°34'65869720.5
2014-Jul-14 08:31N 30°25' E 122°27'65891148.2
2014-Jul-14 08:30N 22°52' E 113°33'0 5.2
2014-Jul-14 08:28N 22°51' E 113°33'6508323.6
2014-Jul-14 08:24N 31°56' E 120°12'641769.0
2014-Jul-14 07:34N 23°04' E 113°29'5025899.6
2014-Jul-14 07:33N 22°15' E 113°38'414505.3
2014-Jul-14 07:33N 22°11' E 113°39'68541779.9
2014-Jul-14 07:32N 30°25' E 122°27'751762.2
2014-Jul-14 07:30N 31°22' E 121°30'743394.9
2014-Jul-14 07:29N 31°56' E 120°12'6505953.4
2014-Jul-14 07:22N 22°51' E 113°34'41132.3
2014-Jul-14 07:03N 22°11' E 113°25'1938.4
2014-Jul-14 06:33N 22°14' E 113°46'71234.8
2014-Jul-14 06:33N 22°15' E 113°38'5016468.9
2014-Jul-14 06:33N 23°04' E 113°29'14680.3
2014-Jul-14 06:32N 22°51' E 113°34'65843898.0
2014-Jul-14 06:31N 30°25' E 122°27'753024.6
2014-Jul-14 06:29N 31°22' E 121°30'75181.0
2014-Jul-14 06:05N 31°56' E 120°12'6421242.9
2014-Jul-14 05:34N 23°05' E 113°26'649583723.1
2014-Jul-14 05:33N 31°58' E 120°22'6781220875.5
2014-Jul-14 05:33N 22°17' E 113°50'11964.5
2014-Jul-14 05:33N 22°15' E 113°38'112170778.8
2014-Jul-14 05:32N 35°07' E 129°03'44126904.3
2014-Jul-14 05:31N 31°22' E 121°30'558125546.8
2014-Jul-14 05:31N 23°07' E 116°40'54926000.8
2014-Jul-14 05:29N 30°42' E 122°24'66810102.2
2014-Jul-14 05:25N 22°51' E 113°34'6504439.5
2014-Jul-14 05:17N 31°56' E 120°12'679945.8
2014-Jul-14 04:33N 22°15' E 113°38'381551.9
2014-Jul-14 04:32N 22°52' E 113°33'1097438679.0
2014-Jul-14 04:32N 35°07' E 129°03'48133302.9
2014-Jul-14 04:31N 31°56' E 120°14'64718786.5
2014-Jul-14 04:29N 23°03' E 113°20'5231293.7
2014-Jul-14 04:29N 22°11' E 113°25'688165198.6
2014-Jul-14 04:29N 31°56' E 120°12'4453363.8
2014-Jul-14 04:21N 39°05' E 117°46'5573581.9
2014-Jul-14 04:11N 30°35' E 122°20'6851076.5
2014-Jul-14 03:33N 22°15' E 113°38'620753717.2
2014-Jul-14 03:26N 49°21' W 123°16'485987456.8
2014-Jul-14 03:23N 35°07' E 129°03'5864109.4
2014-Jul-14 03:14N 39°05' E 117°52'99744843.0
2014-Jul-14 03:13N 22°54' E 113°29'760.1
2014-Jul-14 03:06N 22°54' E 113°22'4277.6
2014-Jul-14 02:33N 22°15' E 113°38'1033464944.7
2014-Jul-14 02:33N 39°05' E 117°51'496893328.9
2014-Jul-14 02:33N 31°22' E 121°30'5375569091.6
2014-Jul-14 02:33N 49°19' W 123°22'485684043.5
2014-Jul-14 02:29N 35°07' E 129°04'48210157.3
2014-Jul-14 02:26N 31°56' E 120°12'1472049.0
2014-Jul-14 02:22N 30°25' E 122°27'437537.2
2014-Jul-14 01:33N 35°07' E 129°04'4851545735.8
2014-Jul-14 01:33N 49°17' W 123°29'619922314869.8
2014-Jul-14 01:33N 22°15' E 113°38'6797549.2
2014-Jul-14 01:27N 31°56' E 120°12'4685178.9
2014-Jul-14 01:22N 24°24' E 117°57'4617541.7
2014-Jul-14 01:18N 31°23' E 121°34'66742124.0
2014-Jul-14 01:17N 22°52' E 113°32'61648314.1
2014-Jul-14 00:33N 49°23' W 123°35'6192857409.2
2014-Jul-14 00:32N 22°15' E 113°38'27711093.4
2014-Jul-14 00:31N 24°24' E 118°05'43710480.4
2014-Jul-14 00:28N 30°38' E 122°20'6672276.8
2014-Jul-14 00:11N 22°54' E 113°22'6535268.8
2014-Jul-14 00:03N 31°56' E 120°12'6791330.1
2014-Jul-13 23:33N 22°15' E 113°38'2785183.0
2014-Jul-13 23:30N 24°23' E 118°06'28048057.0
2014-Jul-13 23:29N 22°14' E 113°35'101251.2
2014-Jul-13 23:29N 22°11' E 113°25'6931811.5
2014-Jul-13 23:06N 30°25' E 122°27'6821266.2
2014-Jul-13 22:33N 22°15' E 113°38'230.1
2014-Jul-13 22:30N 22°14' E 113°36'68448274.7
2014-Jul-13 22:29N 30°25' E 122°27'4301493.4
2014-Jul-13 22:11N 24°23' E 118°06'29021300.0
2014-Jul-13 22:11N 22°11' E 113°25'6881094.7
2014-Jul-13 21:33N 31°56' E 120°12'67976410.4
2014-Jul-13 21:32N 22°15' E 113°38'68240943.0
2014-Jul-13 21:31N 30°25' E 122°27'68421982.4
2014-Jul-13 21:30N 22°14' E 113°36'280201333.3
2014-Jul-13 21:29N 24°23' E 118°06'5869293471.0
2014-Jul-13 21:28N 49°25' W 123°39'620232032.5
2014-Jul-13 21:17N 22°11' E 113°25'4112446.7
2014-Jul-13 21:07N 26°08' E 119°34'299541.5
2014-Jul-13 20:33N 30°25' E 122°27'14918509.5
2014-Jul-13 20:33N 31°56' E 120°09'678221777.8
2014-Jul-13 20:33N 22°15' E 113°38'236.1
2014-Jul-13 20:30N 22°14' E 113°36'17645247.2
2014-Jul-13 20:29N 23°03' E 116°39'6006343196.2
2014-Jul-13 20:28N 49°25' W 123°38'61662466534.2
2014-Jul-13 20:28N 22°27' E 113°53'260934.0
2014-Jul-13 20:11N 24°23' E 118°06'278438.5
2014-Jul-13 19:33N 22°15' E 113°38'6779059.2
2014-Jul-13 19:29N 31°57' E 120°06'5393510916.2
2014-Jul-13 19:28N 49°25' W 123°38'61901310900.3
2014-Jul-13 19:28N 22°14' E 113°36'68425635.4
2014-Jul-13 19:26N 30°25' E 122°27'69310989.8
2014-Jul-13 19:23N 22°11' E 113°25'693838.8
2014-Jul-13 18:33N 30°25' E 122°27'682122829.8
2014-Jul-13 18:33N 22°15' E 113°38'2785000.9
2014-Jul-13 18:29N 24°23' E 118°06'46764631.5
2014-Jul-13 18:29N 31°59' E 119°60'5395498040.6
2014-Jul-13 18:28N 49°25' W 123°39'6184159022.6
2014-Jul-13 18:26N 22°18' E 113°40'15271.5
2014-Jul-13 18:23N 22°11' E 113°25'1215.1
2014-Jul-13 17:33N 22°15' E 113°38'6191210273.5
2014-Jul-13 17:32N 49°24' W 123°36'587224666.2
2014-Jul-13 17:17N 24°23' E 118°06'2901362.6
2014-Jul-13 17:05N 22°11' E 113°25'1223.3
2014-Jul-13 16:33N 22°15' E 113°38'6195353993.0
2014-Jul-13 16:32N 49°23' W 123°32'620840781.9
2014-Jul-13 16:23N 22°11' E 113°25'1215.1
2014-Jul-13 15:33N 22°15' E 113°38'1268.6
2014-Jul-13 15:23N 22°11' E 113°25'6853618.5
2014-Jul-13 15:11N 31°59' E 120°02'6771055.5
2014-Jul-13 14:33N 22°15' E 113°38'18114.3
2014-Jul-13 14:23N 22°27' E 113°53'66039607.3
2014-Jul-13 14:22N 31°58' E 120°06'678807.8
2014-Jul-13 13:32N 22°15' E 113°38'12127.3
2014-Jul-13 13:26N 22°11' E 113°25'68818901.0
2014-Jul-13 13:24N 31°57' E 120°10'4671923.7
2014-Jul-13 13:09N 24°22' E 118°08'467776.2
2014-Jul-13 12:33N 31°57' E 120°13'680144084.0
2014-Jul-13 12:33N 22°14' E 113°38'69127944.5
2014-Jul-13 12:31N 31°22' E 121°30'460552086.5
2014-Jul-13 12:31N 24°17' E 118°10'4331196.8
2014-Jul-13 12:09N 30°25' E 122°27'144240.6
2014-Jul-13 11:33N 31°58' E 120°17'683819945.7
2014-Jul-13 11:33N 22°14' E 113°38'691248705.9
2014-Jul-13 11:33N 31°22' E 121°30'601258.7
2014-Jul-13 11:30N 31°60' E 120°36'1212.8
2014-Jul-13 10:33N 31°60' E 120°22'687618106.4
2014-Jul-13 10:33N 22°14' E 113°38'691310882.4
2014-Jul-13 10:33N 31°22' E 121°30'498895629.6
2014-Jul-13 10:33N 39°05' E 117°46'443398275.9
2014-Jul-13 10:33N 32°02' E 120°28'7012974.1
2014-Jul-13 10:19N 22°11' E 113°25'700921.3
2014-Jul-13 09:33N 32°02' E 120°26'691828898.4
2014-Jul-13 09:33N 22°14' E 113°38'691276339.9
2014-Jul-13 09:33N 31°22' E 121°30'48914931.9
2014-Jul-13 09:31N 23°52' E 117°52'5039014.8
2014-Jul-13 09:28N 31°58' E 120°20'1111.9
2014-Jul-13 08:33N 32°02' E 120°32'6931248237.0
2014-Jul-13 08:33N 22°14' E 113°38'24698260.4
2014-Jul-13 08:33N 23°46' E 117°45'49830882.1
2014-Jul-13 08:32N 31°22' E 121°30'7012796.0
2014-Jul-13 08:17N 22°11' E 113°25'6935788.1
2014-Jul-13 08:10N 30°25' E 122°27'479777.4
2014-Jul-13 07:33N 23°41' E 117°39'504106796.8
2014-Jul-13 07:33N 31°22' E 121°30'691497411.8
2014-Jul-13 07:33N 22°14' E 113°38'696125192.4
2014-Jul-13 07:32N 32°00' E 120°39'1331325.2
2014-Jul-13 07:26N 30°25' E 122°27'6851981.9
2014-Jul-13 07:06N 22°13' E 113°35'3 5.6
2014-Jul-13 06:33N 22°14' E 113°38'69173132.5
2014-Jul-13 06:33N 31°22' E 121°30'49699292.7
2014-Jul-13 06:33N 39°04' E 117°48'447160914.9
2014-Jul-13 06:32N 32°01' E 120°46'70215229.6
2014-Jul-13 06:30N 22°13' E 113°35'694731.1
2014-Jul-13 05:33N 31°22' E 121°30'69167202.9
2014-Jul-13 05:32N 22°14' E 113°38'68211219.1
2014-Jul-13 05:28N 30°25' E 122°27'6858538.0
2014-Jul-13 05:24N 22°13' E 113°35'3 3.6
2014-Jul-13 04:33N 22°14' E 113°38'68230712.4
2014-Jul-13 04:32N 30°25' E 122°27'537161102.9
2014-Jul-13 04:32N 23°07' E 116°39'17790911.9
2014-Jul-13 04:32N 22°54' E 113°28'6647427.2
2014-Jul-13 04:26N 31°22' E 121°30'69414686.0
2014-Jul-13 04:24N 22°13' E 113°35'10363804.0
2014-Jul-13 04:07N 39°05' E 117°51'50419705.8
2014-Jul-13 04:06N 31°14' E 121°30'69129.0
2014-Jul-13 03:33N 30°25' E 122°27'682122848.8
2014-Jul-13 03:33N 22°14' E 113°38'68732119.7
2014-Jul-13 03:32N 31°15' E 121°32'73416.2
2014-Jul-13 03:32N 31°22' E 121°30'6945105.5
2014-Jul-13 03:24N 22°13' E 113°35'103610357.5
2014-Jul-13 03:18N 39°05' E 117°51'998299278.8
2014-Jul-13 03:17N 22°54' E 113°22'112748.6
2014-Jul-13 03:17N 22°51' E 113°33'658904.6
2014-Jul-13 02:33N 30°25' E 122°27'6822456960.3
2014-Jul-13 02:33N 22°14' E 113°38'69160646.5
2014-Jul-13 02:33N 31°22' E 121°30'69154050.9
2014-Jul-13 02:32N 22°16' E 113°36'38386.2
2014-Jul-13 02:26N 22°54' E 113°30'6642668.9
2014-Jul-13 02:11N 31°21' E 121°32'6911100.2
2014-Jul-13 01:33N 22°14' E 113°38'69155252.8
2014-Jul-13 01:33N 31°21' E 121°30'5366878141.7
2014-Jul-13 01:32N 49°24' W 123°30'5366666178.6
2014-Jul-13 01:32N 31°22' E 121°30'49615659.0
2014-Jul-13 01:30N 39°04' E 117°49'5679758.1
2014-Jul-13 01:26N 30°25' E 122°27'7686.0
2014-Jul-13 00:33N 31°23' E 121°30'7654605.0
2014-Jul-13 00:33N 30°25' E 122°27'7529933.1
2014-Jul-13 00:33N 31°22' E 121°30'69180209.9
2014-Jul-13 00:33N 22°14' E 113°38'1771985.4
2014-Jul-13 00:27N 23°11' E 116°40'177195.6
2014-Jul-12 23:33N 22°14' E 113°38'694208068.0
2014-Jul-12 23:33N 31°26' E 121°29'4122.4
2014-Jul-12 23:31N 31°22' E 121°30'756735.8
2014-Jul-12 23:30N 30°25' E 122°27'56710688.8
2014-Jul-12 23:27N 39°04' E 117°49'95519532.6
2014-Jul-12 23:24N 23°11' E 116°40'177208.8
2014-Jul-12 22:33N 22°14' E 113°38'69952415.3
2014-Jul-12 22:32N 32°08' E 120°33'14115421.8
2014-Jul-12 22:32N 30°25' E 122°27'769067.2
2014-Jul-12 22:31N 31°23' E 121°30'55523523.6
2014-Jul-12 22:30N 23°11' E 116°40'18914494.1
2014-Jul-12 22:29N 22°11' E 113°25'41149.6
2014-Jul-12 22:13N 22°51' E 113°34'3825662.0
2014-Jul-12 22:09N 26°08' E 119°34'38213751.2
2014-Jul-12 22:07N 22°51' E 113°34'6581174.8
2014-Jul-12 21:33N 30°25' E 122°27'693207886.2
2014-Jul-12 21:33N 22°11' E 113°25'121627.2
2014-Jul-12 21:33N 22°14' E 113°38'691828817.9
2014-Jul-12 21:33N 31°19' E 121°33'5543637.7
2014-Jul-12 21:24N 23°11' E 116°40'237955.4
2014-Jul-12 21:09N 26°08' E 119°34'400680.9
2014-Jul-12 20:33N 22°14' E 113°38'68324327.2
2014-Jul-12 20:32N 30°25' E 122°27'16417922.2
2014-Jul-12 20:31N 32°06' E 119°55'56340506.8
2014-Jul-12 20:30N 23°11' E 116°40'1723927.0
2014-Jul-12 20:28N 22°51' E 113°34'414575.8
2014-Jul-12 20:27N 22°11' E 113°25'1213.6
2014-Jul-12 19:33N 22°14' E 113°38'123379.6
2014-Jul-12 19:33N 22°11' E 113°25'686617770.0
2014-Jul-12 19:33N 32°02' E 119°57'1611028.3
2014-Jul-12 19:24N 30°25' E 122°27'6584895.7
2014-Jul-12 19:16N 22°51' E 113°34'658919.8
2014-Jul-12 18:33N 30°25' E 122°27'6832457066.4
2014-Jul-12 18:33N 22°14' E 113°38'12240.0
2014-Jul-12 18:30N 22°11' E 113°25'68511476.4
2014-Jul-12 18:26N 31°58' E 120°02'75419.1
2014-Jul-12 18:15N 31°29' E 121°23'6658585.8
2014-Jul-12 18:11N 22°51' E 113°34'6581051.7
2014-Jul-12 17:33N 30°25' E 122°27'6831228533.2
2014-Jul-12 17:33N 22°14' E 113°38'677406416.3
2014-Jul-12 17:33N 31°58' E 120°05'153154.0
2014-Jul-12 16:33N 30°25' E 122°27'683117001.7
2014-Jul-12 16:33N 22°14' E 113°38'1772942.2
2014-Jul-12 16:29N 23°10' E 116°40'5571471.4
2014-Jul-12 16:07N 31°57' E 120°08'150270.0
2014-Jul-12 15:33N 30°25' E 122°27'683409508.4
2014-Jul-12 15:33N 22°14' E 113°38'67844369.9
2014-Jul-12 15:32N 31°56' E 120°09'5534226.4
2014-Jul-12 15:24N 23°13' E 116°48'6 7.1
2014-Jul-12 14:33N 23°18' E 116°46'185667353.3
2014-Jul-12 14:33N 22°14' E 113°38'  

Dump ship's entire track history